<?xml version="1.0" encoding="UTF-8" standalone="no" ?>
<gpx xmlns="http://www.topografix.com/GPX/1/1" xmlns:xsi="http://www.w3.org/2001/XMLSchema-instance" xsi:schemaLocation="http://www.topografix.com/GPX/1/1 http://www.topografix.com/GPX/1/1/gpx.xsd" version="1.1" creator="VisuGPX - https://www.visugpx.com">
  <metadata>
    <name>Serre Delègue depuis Saint Nazaire le Désert</name>
    <desc><![CDATA[Boucle au départ de Saint Nazaire le Désert par la crête de Pénatier, Barnier, Ronat, Clos Richard, Serre Delègue et Serre La Croix. Très belles vues sur le sud Vercors et le Dévoluy. [b]Attention[/b] : randonnée à effectuer hors période de présence des troupeaux sur les alpages de la montagne de Couspeau.]]></desc>
  </metadata>
  <trk>
    <name><![CDATA[2025-03-02 15:53:25]]></name>
    <trkseg>
      <trkpt lat="44.57036" lon="5.27585">
        <ele>571.64</ele>
        <time>2025-03-02T07:55:12Z</time>
      </trkpt>
      <trkpt lat="44.57035" lon="5.27582">
        <ele>571.64</ele>
        <time>2025-03-02T07:55:28Z</time>
      </trkpt>
      <trkpt lat="44.57035" lon="5.27579">
        <ele>571.64</ele>
        <time>2025-03-02T07:55:40Z</time>
      </trkpt>
      <trkpt lat="44.57034" lon="5.27578">
        <ele>571.64</ele>
        <time>2025-03-02T07:56:00Z</time>
      </trkpt>
      <trkpt lat="44.57034" lon="5.27571">
        <ele>571.64</ele>
        <time>2025-03-02T07:56:16Z</time>
      </trkpt>
      <trkpt lat="44.57035" lon="5.27554">
        <ele>571.64</ele>
        <time>2025-03-02T07:56:31Z</time>
      </trkpt>
      <trkpt lat="44.57035" lon="5.27552">
        <ele>571.64</ele>
        <time>2025-03-02T07:56:33Z</time>
      </trkpt>
      <trkpt lat="44.57039" lon="5.27518">
        <ele>572.6</ele>
        <time>2025-03-02T07:56:52Z</time>
      </trkpt>
      <trkpt lat="44.57032" lon="5.27504">
        <ele>572.6</ele>
        <time>2025-03-02T07:57:10Z</time>
      </trkpt>
      <trkpt lat="44.57023" lon="5.27505">
        <ele>572.12</ele>
        <time>2025-03-02T07:57:22Z</time>
      </trkpt>
      <trkpt lat="44.57017" lon="5.27502">
        <ele>572.12</ele>
        <time>2025-03-02T07:57:30Z</time>
      </trkpt>
      <trkpt lat="44.57011" lon="5.27496">
        <ele>572.12</ele>
        <time>2025-03-02T07:57:36Z</time>
      </trkpt>
      <trkpt lat="44.57002" lon="5.27465">
        <ele>572.6</ele>
        <time>2025-03-02T07:57:56Z</time>
      </trkpt>
      <trkpt lat="44.56991" lon="5.27434">
        <ele>572.12</ele>
        <time>2025-03-02T07:58:15Z</time>
      </trkpt>
      <trkpt lat="44.56979" lon="5.27407">
        <ele>572.6</ele>
        <time>2025-03-02T07:58:33Z</time>
      </trkpt>
      <trkpt lat="44.56966" lon="5.27388">
        <ele>572.6</ele>
        <time>2025-03-02T07:58:46Z</time>
      </trkpt>
      <trkpt lat="44.56956" lon="5.27361">
        <ele>574.04</ele>
        <time>2025-03-02T07:59:04Z</time>
      </trkpt>
      <trkpt lat="44.56957" lon="5.27338">
        <ele>575.01</ele>
        <time>2025-03-02T07:59:18Z</time>
      </trkpt>
      <trkpt lat="44.56962" lon="5.27313">
        <ele>576.93</ele>
        <time>2025-03-02T07:59:33Z</time>
      </trkpt>
      <trkpt lat="44.56962" lon="5.27291">
        <ele>579.33</ele>
        <time>2025-03-02T07:59:48Z</time>
      </trkpt>
      <trkpt lat="44.56963" lon="5.27283">
        <ele>580.77</ele>
        <time>2025-03-02T07:59:54Z</time>
      </trkpt>
      <trkpt lat="44.56963" lon="5.27264">
        <ele>583.18</ele>
        <time>2025-03-02T08:00:10Z</time>
      </trkpt>
      <trkpt lat="44.56961" lon="5.27251">
        <ele>585.1</ele>
        <time>2025-03-02T08:00:20Z</time>
      </trkpt>
      <trkpt lat="44.56957" lon="5.2723">
        <ele>587.02</ele>
        <time>2025-03-02T08:00:35Z</time>
      </trkpt>
      <trkpt lat="44.56956" lon="5.27214">
        <ele>587.98</ele>
        <time>2025-03-02T08:00:47Z</time>
      </trkpt>
      <trkpt lat="44.56961" lon="5.27195">
        <ele>590.39</ele>
        <time>2025-03-02T08:01:01Z</time>
      </trkpt>
      <trkpt lat="44.56964" lon="5.2719">
        <ele>591.35</ele>
        <time>2025-03-02T08:01:06Z</time>
      </trkpt>
      <trkpt lat="44.5697" lon="5.27197">
        <ele>592.31</ele>
        <time>2025-03-02T08:01:17Z</time>
      </trkpt>
      <trkpt lat="44.56977" lon="5.27212">
        <ele>593.75</ele>
        <time>2025-03-02T08:01:31Z</time>
      </trkpt>
      <trkpt lat="44.56984" lon="5.27231">
        <ele>595.19</ele>
        <time>2025-03-02T08:01:45Z</time>
      </trkpt>
      <trkpt lat="44.56995" lon="5.27251">
        <ele>594.71</ele>
        <time>2025-03-02T08:02:00Z</time>
      </trkpt>
      <trkpt lat="44.57001" lon="5.27262">
        <ele>594.71</ele>
        <time>2025-03-02T08:02:08Z</time>
      </trkpt>
      <trkpt lat="44.57004" lon="5.27271">
        <ele>595.19</ele>
        <time>2025-03-02T08:02:15Z</time>
      </trkpt>
      <trkpt lat="44.57009" lon="5.27282">
        <ele>595.67</ele>
        <time>2025-03-02T08:02:23Z</time>
      </trkpt>
      <trkpt lat="44.57016" lon="5.27298">
        <ele>597.12</ele>
        <time>2025-03-02T08:02:34Z</time>
      </trkpt>
      <trkpt lat="44.57024" lon="5.27319">
        <ele>598.08</ele>
        <time>2025-03-02T08:02:48Z</time>
      </trkpt>
      <trkpt lat="44.57027" lon="5.27324">
        <ele>598.08</ele>
        <time>2025-03-02T08:02:52Z</time>
      </trkpt>
      <trkpt lat="44.57029" lon="5.2733">
        <ele>599.04</ele>
        <time>2025-03-02T08:02:56Z</time>
      </trkpt>
      <trkpt lat="44.57032" lon="5.27336">
        <ele>599.04</ele>
        <time>2025-03-02T08:03:01Z</time>
      </trkpt>
      <trkpt lat="44.57044" lon="5.27351">
        <ele>601.44</ele>
        <time>2025-03-02T08:03:16Z</time>
      </trkpt>
      <trkpt lat="44.57054" lon="5.27361">
        <ele>604.33</ele>
        <time>2025-03-02T08:03:29Z</time>
      </trkpt>
      <trkpt lat="44.57064" lon="5.2737">
        <ele>606.25</ele>
        <time>2025-03-02T08:03:42Z</time>
      </trkpt>
      <trkpt lat="44.57074" lon="5.27381">
        <ele>608.65</ele>
        <time>2025-03-02T08:03:55Z</time>
      </trkpt>
      <trkpt lat="44.57075" lon="5.27382">
        <ele>608.65</ele>
        <time>2025-03-02T08:03:57Z</time>
      </trkpt>
      <trkpt lat="44.57091" lon="5.27389">
        <ele>611.06</ele>
        <time>2025-03-02T08:04:12Z</time>
      </trkpt>
      <trkpt lat="44.57109" lon="5.27389">
        <ele>612.98</ele>
        <time>2025-03-02T08:04:27Z</time>
      </trkpt>
      <trkpt lat="44.57124" lon="5.27384">
        <ele>614.9</ele>
        <time>2025-03-02T08:04:42Z</time>
      </trkpt>
      <trkpt lat="44.57139" lon="5.27377">
        <ele>617.3</ele>
        <time>2025-03-02T08:04:57Z</time>
      </trkpt>
      <trkpt lat="44.5715" lon="5.2737">
        <ele>619.71</ele>
        <time>2025-03-02T08:05:10Z</time>
      </trkpt>
      <trkpt lat="44.57153" lon="5.27366">
        <ele>620.67</ele>
        <time>2025-03-02T08:05:27Z</time>
      </trkpt>
      <trkpt lat="44.57152" lon="5.27363">
        <ele>620.67</ele>
        <time>2025-03-02T08:06:01Z</time>
      </trkpt>
      <trkpt lat="44.57141" lon="5.27354">
        <ele>623.07</ele>
        <time>2025-03-02T08:06:15Z</time>
      </trkpt>
      <trkpt lat="44.5714" lon="5.27352">
        <ele>624.03</ele>
        <time>2025-03-02T08:06:17Z</time>
      </trkpt>
      <trkpt lat="44.57139" lon="5.27345">
        <ele>624.03</ele>
        <time>2025-03-02T08:06:21Z</time>
      </trkpt>
      <trkpt lat="44.57146" lon="5.2734">
        <ele>624.99</ele>
        <time>2025-03-02T08:06:31Z</time>
      </trkpt>
      <trkpt lat="44.57159" lon="5.27344">
        <ele>627.4</ele>
        <time>2025-03-02T08:06:46Z</time>
      </trkpt>
      <trkpt lat="44.57177" lon="5.27337">
        <ele>627.88</ele>
        <time>2025-03-02T08:07:02Z</time>
      </trkpt>
      <trkpt lat="44.57195" lon="5.2732">
        <ele>627.88</ele>
        <time>2025-03-02T08:07:19Z</time>
      </trkpt>
      <trkpt lat="44.57212" lon="5.27316">
        <ele>628.84</ele>
        <time>2025-03-02T08:07:34Z</time>
      </trkpt>
      <trkpt lat="44.57227" lon="5.27308">
        <ele>629.8</ele>
        <time>2025-03-02T08:07:48Z</time>
      </trkpt>
      <trkpt lat="44.57239" lon="5.27305">
        <ele>630.76</ele>
        <time>2025-03-02T08:08:01Z</time>
      </trkpt>
      <trkpt lat="44.57255" lon="5.27297">
        <ele>630.76</ele>
        <time>2025-03-02T08:08:14Z</time>
      </trkpt>
      <trkpt lat="44.57267" lon="5.27285">
        <ele>632.2</ele>
        <time>2025-03-02T08:08:30Z</time>
      </trkpt>
      <trkpt lat="44.57282" lon="5.27273">
        <ele>633.65</ele>
        <time>2025-03-02T08:08:45Z</time>
      </trkpt>
      <trkpt lat="44.57296" lon="5.27262">
        <ele>635.09</ele>
        <time>2025-03-02T08:08:59Z</time>
      </trkpt>
      <trkpt lat="44.57307" lon="5.27251">
        <ele>636.53</ele>
        <time>2025-03-02T08:09:12Z</time>
      </trkpt>
      <trkpt lat="44.57309" lon="5.2725">
        <ele>637.01</ele>
        <time>2025-03-02T08:09:13Z</time>
      </trkpt>
      <trkpt lat="44.57324" lon="5.27254">
        <ele>638.45</ele>
        <time>2025-03-02T08:09:27Z</time>
      </trkpt>
      <trkpt lat="44.57336" lon="5.27265">
        <ele>641.34</ele>
        <time>2025-03-02T08:09:42Z</time>
      </trkpt>
      <trkpt lat="44.57341" lon="5.27268">
        <ele>641.82</ele>
        <time>2025-03-02T08:09:47Z</time>
      </trkpt>
      <trkpt lat="44.57343" lon="5.27269">
        <ele>642.3</ele>
        <time>2025-03-02T08:09:49Z</time>
      </trkpt>
      <trkpt lat="44.57358" lon="5.27276">
        <ele>644.22</ele>
        <time>2025-03-02T08:10:05Z</time>
      </trkpt>
      <trkpt lat="44.57372" lon="5.27283">
        <ele>645.66</ele>
        <time>2025-03-02T08:10:18Z</time>
      </trkpt>
      <trkpt lat="44.57385" lon="5.27288">
        <ele>647.1</ele>
        <time>2025-03-02T08:10:31Z</time>
      </trkpt>
      <trkpt lat="44.57406" lon="5.27289">
        <ele>649.51</ele>
        <time>2025-03-02T08:10:47Z</time>
      </trkpt>
      <trkpt lat="44.57425" lon="5.27278">
        <ele>649.51</ele>
        <time>2025-03-02T08:11:04Z</time>
      </trkpt>
      <trkpt lat="44.57442" lon="5.27265">
        <ele>650.47</ele>
        <time>2025-03-02T08:11:20Z</time>
      </trkpt>
      <trkpt lat="44.57458" lon="5.27252">
        <ele>650.47</ele>
        <time>2025-03-02T08:11:35Z</time>
      </trkpt>
      <trkpt lat="44.57473" lon="5.27244">
        <ele>649.99</ele>
        <time>2025-03-02T08:11:51Z</time>
      </trkpt>
      <trkpt lat="44.57474" lon="5.27244">
        <ele>649.99</ele>
        <time>2025-03-02T08:11:52Z</time>
      </trkpt>
      <trkpt lat="44.57492" lon="5.27237">
        <ele>650.95</ele>
        <time>2025-03-02T08:12:08Z</time>
      </trkpt>
      <trkpt lat="44.57502" lon="5.27226">
        <ele>652.39</ele>
        <time>2025-03-02T08:12:23Z</time>
      </trkpt>
      <trkpt lat="44.57485" lon="5.27223">
        <ele>653.35</ele>
        <time>2025-03-02T08:14:43Z</time>
      </trkpt>
      <trkpt lat="44.57471" lon="5.27212">
        <ele>654.8</ele>
        <time>2025-03-02T08:15:00Z</time>
      </trkpt>
      <trkpt lat="44.57456" lon="5.27202">
        <ele>656.72</ele>
        <time>2025-03-02T08:15:16Z</time>
      </trkpt>
      <trkpt lat="44.5744" lon="5.27197">
        <ele>659.6</ele>
        <time>2025-03-02T08:15:31Z</time>
      </trkpt>
      <trkpt lat="44.57428" lon="5.27193">
        <ele>662.01</ele>
        <time>2025-03-02T08:15:45Z</time>
      </trkpt>
      <trkpt lat="44.57412" lon="5.27188">
        <ele>663.93</ele>
        <time>2025-03-02T08:16:01Z</time>
      </trkpt>
      <trkpt lat="44.57399" lon="5.27191">
        <ele>665.37</ele>
        <time>2025-03-02T08:16:13Z</time>
      </trkpt>
      <trkpt lat="44.57387" lon="5.27189">
        <ele>667.29</ele>
        <time>2025-03-02T08:16:27Z</time>
      </trkpt>
      <trkpt lat="44.57373" lon="5.27181">
        <ele>668.73</ele>
        <time>2025-03-02T08:16:42Z</time>
      </trkpt>
      <trkpt lat="44.57358" lon="5.27167">
        <ele>670.18</ele>
        <time>2025-03-02T08:16:58Z</time>
      </trkpt>
      <trkpt lat="44.57343" lon="5.27159">
        <ele>672.58</ele>
        <time>2025-03-02T08:17:13Z</time>
      </trkpt>
      <trkpt lat="44.5733" lon="5.27148">
        <ele>674.02</ele>
        <time>2025-03-02T08:17:27Z</time>
      </trkpt>
      <trkpt lat="44.57319" lon="5.27133">
        <ele>676.42</ele>
        <time>2025-03-02T08:17:42Z</time>
      </trkpt>
      <trkpt lat="44.57305" lon="5.27124">
        <ele>678.35</ele>
        <time>2025-03-02T08:17:58Z</time>
      </trkpt>
      <trkpt lat="44.57291" lon="5.27116">
        <ele>679.79</ele>
        <time>2025-03-02T08:18:13Z</time>
      </trkpt>
      <trkpt lat="44.5728" lon="5.27104">
        <ele>681.71</ele>
        <time>2025-03-02T08:18:27Z</time>
      </trkpt>
      <trkpt lat="44.57268" lon="5.27098">
        <ele>684.12</ele>
        <time>2025-03-02T08:18:40Z</time>
      </trkpt>
      <trkpt lat="44.57255" lon="5.27102">
        <ele>685.56</ele>
        <time>2025-03-02T08:18:54Z</time>
      </trkpt>
      <trkpt lat="44.57254" lon="5.27104">
        <ele>686.04</ele>
        <time>2025-03-02T08:18:56Z</time>
      </trkpt>
      <trkpt lat="44.57243" lon="5.27122">
        <ele>687.96</ele>
        <time>2025-03-02T08:19:15Z</time>
      </trkpt>
      <trkpt lat="44.57229" lon="5.27127">
        <ele>688.92</ele>
        <time>2025-03-02T08:19:28Z</time>
      </trkpt>
      <trkpt lat="44.57212" lon="5.27123">
        <ele>688.92</ele>
        <time>2025-03-02T08:19:44Z</time>
      </trkpt>
      <trkpt lat="44.57198" lon="5.27117">
        <ele>690.36</ele>
        <time>2025-03-02T08:19:59Z</time>
      </trkpt>
      <trkpt lat="44.57203" lon="5.27104">
        <ele>692.77</ele>
        <time>2025-03-02T08:20:13Z</time>
      </trkpt>
      <trkpt lat="44.57212" lon="5.271">
        <ele>694.21</ele>
        <time>2025-03-02T08:20:23Z</time>
      </trkpt>
      <trkpt lat="44.57224" lon="5.27088">
        <ele>696.13</ele>
        <time>2025-03-02T08:20:38Z</time>
      </trkpt>
      <trkpt lat="44.57237" lon="5.27072">
        <ele>697.09</ele>
        <time>2025-03-02T08:20:53Z</time>
      </trkpt>
      <trkpt lat="44.57243" lon="5.27045">
        <ele>697.09</ele>
        <time>2025-03-02T08:21:10Z</time>
      </trkpt>
      <trkpt lat="44.57247" lon="5.27014">
        <ele>697.57</ele>
        <time>2025-03-02T08:21:28Z</time>
      </trkpt>
      <trkpt lat="44.5725" lon="5.26993">
        <ele>699.5</ele>
        <time>2025-03-02T08:21:43Z</time>
      </trkpt>
      <trkpt lat="44.57253" lon="5.26974">
        <ele>703.34</ele>
        <time>2025-03-02T08:21:57Z</time>
      </trkpt>
      <trkpt lat="44.57258" lon="5.2696">
        <ele>705.75</ele>
        <time>2025-03-02T08:22:11Z</time>
      </trkpt>
      <trkpt lat="44.57266" lon="5.26951">
        <ele>708.15</ele>
        <time>2025-03-02T08:22:25Z</time>
      </trkpt>
      <trkpt lat="44.57277" lon="5.26946">
        <ele>711.03</ele>
        <time>2025-03-02T08:22:40Z</time>
      </trkpt>
      <trkpt lat="44.57281" lon="5.26946">
        <ele>711.51</ele>
        <time>2025-03-02T08:22:44Z</time>
      </trkpt>
      <trkpt lat="44.57293" lon="5.26946">
        <ele>712.47</ele>
        <time>2025-03-02T08:22:56Z</time>
      </trkpt>
      <trkpt lat="44.57298" lon="5.26947">
        <ele>712.47</ele>
        <time>2025-03-02T08:23:00Z</time>
      </trkpt>
      <trkpt lat="44.57318" lon="5.26951">
        <ele>713.92</ele>
        <time>2025-03-02T08:23:16Z</time>
      </trkpt>
      <trkpt lat="44.57333" lon="5.26948">
        <ele>715.84</ele>
        <time>2025-03-02T08:23:29Z</time>
      </trkpt>
      <trkpt lat="44.57345" lon="5.26939">
        <ele>719.2</ele>
        <time>2025-03-02T08:23:44Z</time>
      </trkpt>
      <trkpt lat="44.57358" lon="5.26935">
        <ele>721.61</ele>
        <time>2025-03-02T08:24:00Z</time>
      </trkpt>
      <trkpt lat="44.57364" lon="5.26924">
        <ele>723.05</ele>
        <time>2025-03-02T08:24:16Z</time>
      </trkpt>
      <trkpt lat="44.57355" lon="5.26915">
        <ele>725.45</ele>
        <time>2025-03-02T08:24:30Z</time>
      </trkpt>
      <trkpt lat="44.57347" lon="5.26909">
        <ele>725.93</ele>
        <time>2025-03-02T08:24:46Z</time>
      </trkpt>
      <trkpt lat="44.57344" lon="5.26907">
        <ele>725.93</ele>
        <time>2025-03-02T08:24:59Z</time>
      </trkpt>
      <trkpt lat="44.57335" lon="5.26896">
        <ele>727.37</ele>
        <time>2025-03-02T08:25:12Z</time>
      </trkpt>
      <trkpt lat="44.57331" lon="5.26893">
        <ele>728.34</ele>
        <time>2025-03-02T08:29:16Z</time>
      </trkpt>
      <trkpt lat="44.57331" lon="5.26891">
        <ele>728.82</ele>
        <time>2025-03-02T08:29:38Z</time>
      </trkpt>
      <trkpt lat="44.57332" lon="5.26885">
        <ele>729.3</ele>
        <time>2025-03-02T08:30:04Z</time>
      </trkpt>
      <trkpt lat="44.57339" lon="5.26879">
        <ele>732.18</ele>
        <time>2025-03-02T08:30:18Z</time>
      </trkpt>
      <trkpt lat="44.57348" lon="5.26873">
        <ele>734.58</ele>
        <time>2025-03-02T08:30:34Z</time>
      </trkpt>
      <trkpt lat="44.57358" lon="5.26871">
        <ele>737.95</ele>
        <time>2025-03-02T08:30:49Z</time>
      </trkpt>
      <trkpt lat="44.57367" lon="5.26867">
        <ele>739.39</ele>
        <time>2025-03-02T08:31:02Z</time>
      </trkpt>
      <trkpt lat="44.57379" lon="5.26854">
        <ele>741.79</ele>
        <time>2025-03-02T08:31:18Z</time>
      </trkpt>
      <trkpt lat="44.5739" lon="5.26846">
        <ele>743.72</ele>
        <time>2025-03-02T08:31:31Z</time>
      </trkpt>
      <trkpt lat="44.57403" lon="5.26839">
        <ele>745.16</ele>
        <time>2025-03-02T08:31:47Z</time>
      </trkpt>
      <trkpt lat="44.57417" lon="5.2683">
        <ele>747.56</ele>
        <time>2025-03-02T08:32:03Z</time>
      </trkpt>
      <trkpt lat="44.57425" lon="5.2682">
        <ele>748.04</ele>
        <time>2025-03-02T08:32:17Z</time>
      </trkpt>
      <trkpt lat="44.57438" lon="5.26805">
        <ele>750.45</ele>
        <time>2025-03-02T08:32:34Z</time>
      </trkpt>
      <trkpt lat="44.57441" lon="5.26792">
        <ele>751.89</ele>
        <time>2025-03-02T08:32:47Z</time>
      </trkpt>
      <trkpt lat="44.57444" lon="5.26778">
        <ele>754.29</ele>
        <time>2025-03-02T08:33:02Z</time>
      </trkpt>
      <trkpt lat="44.57443" lon="5.26767">
        <ele>755.73</ele>
        <time>2025-03-02T08:33:13Z</time>
      </trkpt>
      <trkpt lat="44.5744" lon="5.26751">
        <ele>756.69</ele>
        <time>2025-03-02T08:33:28Z</time>
      </trkpt>
      <trkpt lat="44.5744" lon="5.26736">
        <ele>760.06</ele>
        <time>2025-03-02T08:33:43Z</time>
      </trkpt>
      <trkpt lat="44.57434" lon="5.26724">
        <ele>762.94</ele>
        <time>2025-03-02T08:33:59Z</time>
      </trkpt>
      <trkpt lat="44.57432" lon="5.26714">
        <ele>766.31</ele>
        <time>2025-03-02T08:34:15Z</time>
      </trkpt>
      <trkpt lat="44.57428" lon="5.26703">
        <ele>769.67</ele>
        <time>2025-03-02T08:34:30Z</time>
      </trkpt>
      <trkpt lat="44.57422" lon="5.26688">
        <ele>772.08</ele>
        <time>2025-03-02T08:34:48Z</time>
      </trkpt>
      <trkpt lat="44.57422" lon="5.26677">
        <ele>774.96</ele>
        <time>2025-03-02T08:35:04Z</time>
      </trkpt>
      <trkpt lat="44.57421" lon="5.26663">
        <ele>777.84</ele>
        <time>2025-03-02T08:35:20Z</time>
      </trkpt>
      <trkpt lat="44.57419" lon="5.26647">
        <ele>780.73</ele>
        <time>2025-03-02T08:35:37Z</time>
      </trkpt>
      <trkpt lat="44.57418" lon="5.2663">
        <ele>782.17</ele>
        <time>2025-03-02T08:35:52Z</time>
      </trkpt>
      <trkpt lat="44.57416" lon="5.26613">
        <ele>783.61</ele>
        <time>2025-03-02T08:36:06Z</time>
      </trkpt>
      <trkpt lat="44.57416" lon="5.26593">
        <ele>783.61</ele>
        <time>2025-03-02T08:36:22Z</time>
      </trkpt>
      <trkpt lat="44.57415" lon="5.26573">
        <ele>784.57</ele>
        <time>2025-03-02T08:36:37Z</time>
      </trkpt>
      <trkpt lat="44.57413" lon="5.26552">
        <ele>785.05</ele>
        <time>2025-03-02T08:36:51Z</time>
      </trkpt>
      <trkpt lat="44.57412" lon="5.26533">
        <ele>786.98</ele>
        <time>2025-03-02T08:37:05Z</time>
      </trkpt>
      <trkpt lat="44.57411" lon="5.26524">
        <ele>786.98</ele>
        <time>2025-03-02T08:37:11Z</time>
      </trkpt>
      <trkpt lat="44.57407" lon="5.26499">
        <ele>787.46</ele>
        <time>2025-03-02T08:37:27Z</time>
      </trkpt>
      <trkpt lat="44.57404" lon="5.26477">
        <ele>788.9</ele>
        <time>2025-03-02T08:37:42Z</time>
      </trkpt>
      <trkpt lat="44.57403" lon="5.26457">
        <ele>791.78</ele>
        <time>2025-03-02T08:37:57Z</time>
      </trkpt>
      <trkpt lat="44.57404" lon="5.26441">
        <ele>794.19</ele>
        <time>2025-03-02T08:38:11Z</time>
      </trkpt>
      <trkpt lat="44.57404" lon="5.26426">
        <ele>795.63</ele>
        <time>2025-03-02T08:38:25Z</time>
      </trkpt>
      <trkpt lat="44.57401" lon="5.26406">
        <ele>798.51</ele>
        <time>2025-03-02T08:38:41Z</time>
      </trkpt>
      <trkpt lat="44.57397" lon="5.26388">
        <ele>800.44</ele>
        <time>2025-03-02T08:38:56Z</time>
      </trkpt>
      <trkpt lat="44.57395" lon="5.26377">
        <ele>801.4</ele>
        <time>2025-03-02T08:39:05Z</time>
      </trkpt>
      <trkpt lat="44.57391" lon="5.26359">
        <ele>802.36</ele>
        <time>2025-03-02T08:39:19Z</time>
      </trkpt>
      <trkpt lat="44.57384" lon="5.26345">
        <ele>802.36</ele>
        <time>2025-03-02T08:39:33Z</time>
      </trkpt>
      <trkpt lat="44.57376" lon="5.26326">
        <ele>804.76</ele>
        <time>2025-03-02T08:39:49Z</time>
      </trkpt>
      <trkpt lat="44.57366" lon="5.26312">
        <ele>807.16</ele>
        <time>2025-03-02T08:40:06Z</time>
      </trkpt>
      <trkpt lat="44.57356" lon="5.26295">
        <ele>809.57</ele>
        <time>2025-03-02T08:40:23Z</time>
      </trkpt>
      <trkpt lat="44.57352" lon="5.26286">
        <ele>811.97</ele>
        <time>2025-03-02T08:40:37Z</time>
      </trkpt>
      <trkpt lat="44.57346" lon="5.26269">
        <ele>814.85</ele>
        <time>2025-03-02T08:40:51Z</time>
      </trkpt>
      <trkpt lat="44.57343" lon="5.26259">
        <ele>817.74</ele>
        <time>2025-03-02T08:41:05Z</time>
      </trkpt>
      <trkpt lat="44.5734" lon="5.26251">
        <ele>821.1</ele>
        <time>2025-03-02T08:41:19Z</time>
      </trkpt>
      <trkpt lat="44.57329" lon="5.26245">
        <ele>823.99</ele>
        <time>2025-03-02T08:41:33Z</time>
      </trkpt>
      <trkpt lat="44.57319" lon="5.26238">
        <ele>825.43</ele>
        <time>2025-03-02T08:41:49Z</time>
      </trkpt>
      <trkpt lat="44.5731" lon="5.26225">
        <ele>824.47</ele>
        <time>2025-03-02T08:42:03Z</time>
      </trkpt>
      <trkpt lat="44.57296" lon="5.26213">
        <ele>825.91</ele>
        <time>2025-03-02T08:42:18Z</time>
      </trkpt>
      <trkpt lat="44.57294" lon="5.26212">
        <ele>826.39</ele>
        <time>2025-03-02T08:42:20Z</time>
      </trkpt>
      <trkpt lat="44.5728" lon="5.26202">
        <ele>828.31</ele>
        <time>2025-03-02T08:42:35Z</time>
      </trkpt>
      <trkpt lat="44.57271" lon="5.26194">
        <ele>830.72</ele>
        <time>2025-03-02T08:42:49Z</time>
      </trkpt>
      <trkpt lat="44.57265" lon="5.26188">
        <ele>832.64</ele>
        <time>2025-03-02T08:43:16Z</time>
      </trkpt>
      <trkpt lat="44.57259" lon="5.26186">
        <ele>835.04</ele>
        <time>2025-03-02T08:43:32Z</time>
      </trkpt>
      <trkpt lat="44.57254" lon="5.26181">
        <ele>836.96</ele>
        <time>2025-03-02T08:43:47Z</time>
      </trkpt>
      <trkpt lat="44.57248" lon="5.26172">
        <ele>840.33</ele>
        <time>2025-03-02T08:44:01Z</time>
      </trkpt>
      <trkpt lat="44.57245" lon="5.26166">
        <ele>843.69</ele>
        <time>2025-03-02T08:44:15Z</time>
      </trkpt>
      <trkpt lat="44.57235" lon="5.26163">
        <ele>846.58</ele>
        <time>2025-03-02T08:44:30Z</time>
      </trkpt>
      <trkpt lat="44.57226" lon="5.26157">
        <ele>849.94</ele>
        <time>2025-03-02T08:44:48Z</time>
      </trkpt>
      <trkpt lat="44.57218" lon="5.26154">
        <ele>852.35</ele>
        <time>2025-03-02T08:45:03Z</time>
      </trkpt>
      <trkpt lat="44.57206" lon="5.2615">
        <ele>853.31</ele>
        <time>2025-03-02T08:45:20Z</time>
      </trkpt>
      <trkpt lat="44.57202" lon="5.26149">
        <ele>851.87</ele>
        <time>2025-03-02T08:45:36Z</time>
      </trkpt>
      <trkpt lat="44.572" lon="5.26147">
        <ele>851.38</ele>
        <time>2025-03-02T08:50:17Z</time>
      </trkpt>
      <trkpt lat="44.57196" lon="5.26146">
        <ele>848.98</ele>
        <time>2025-03-02T08:50:38Z</time>
      </trkpt>
      <trkpt lat="44.5719" lon="5.26137">
        <ele>845.14</ele>
        <time>2025-03-02T08:50:54Z</time>
      </trkpt>
      <trkpt lat="44.57186" lon="5.26125">
        <ele>843.21</ele>
        <time>2025-03-02T08:51:06Z</time>
      </trkpt>
      <trkpt lat="44.57189" lon="5.26096">
        <ele>843.21</ele>
        <time>2025-03-02T08:51:26Z</time>
      </trkpt>
      <trkpt lat="44.57186" lon="5.26076">
        <ele>844.66</ele>
        <time>2025-03-02T08:51:41Z</time>
      </trkpt>
      <trkpt lat="44.57179" lon="5.2606">
        <ele>847.54</ele>
        <time>2025-03-02T08:51:56Z</time>
      </trkpt>
      <trkpt lat="44.57173" lon="5.26048">
        <ele>850.42</ele>
        <time>2025-03-02T08:52:11Z</time>
      </trkpt>
      <trkpt lat="44.57167" lon="5.2603">
        <ele>852.83</ele>
        <time>2025-03-02T08:52:28Z</time>
      </trkpt>
      <trkpt lat="44.5716" lon="5.26016">
        <ele>856.19</ele>
        <time>2025-03-02T08:52:45Z</time>
      </trkpt>
      <trkpt lat="44.57157" lon="5.26006">
        <ele>858.59</ele>
        <time>2025-03-02T08:52:59Z</time>
      </trkpt>
      <trkpt lat="44.57153" lon="5.25992">
        <ele>861.48</ele>
        <time>2025-03-02T08:53:14Z</time>
      </trkpt>
      <trkpt lat="44.5714" lon="5.25985">
        <ele>863.88</ele>
        <time>2025-03-02T08:53:29Z</time>
      </trkpt>
      <trkpt lat="44.57129" lon="5.25977">
        <ele>865.8</ele>
        <time>2025-03-02T08:53:44Z</time>
      </trkpt>
      <trkpt lat="44.57125" lon="5.25965">
        <ele>869.17</ele>
        <time>2025-03-02T08:54:01Z</time>
      </trkpt>
      <trkpt lat="44.57116" lon="5.25948">
        <ele>871.57</ele>
        <time>2025-03-02T08:54:17Z</time>
      </trkpt>
      <trkpt lat="44.57106" lon="5.25937">
        <ele>873.5</ele>
        <time>2025-03-02T08:54:32Z</time>
      </trkpt>
      <trkpt lat="44.57102" lon="5.25925">
        <ele>876.86</ele>
        <time>2025-03-02T08:54:47Z</time>
      </trkpt>
      <trkpt lat="44.57097" lon="5.25915">
        <ele>880.22</ele>
        <time>2025-03-02T08:55:02Z</time>
      </trkpt>
      <trkpt lat="44.57088" lon="5.25903">
        <ele>882.63</ele>
        <time>2025-03-02T08:55:18Z</time>
      </trkpt>
      <trkpt lat="44.57082" lon="5.25891">
        <ele>885.03</ele>
        <time>2025-03-02T08:55:34Z</time>
      </trkpt>
      <trkpt lat="44.57084" lon="5.25881">
        <ele>887.91</ele>
        <time>2025-03-02T08:55:49Z</time>
      </trkpt>
      <trkpt lat="44.57089" lon="5.2587">
        <ele>890.32</ele>
        <time>2025-03-02T08:56:05Z</time>
      </trkpt>
      <trkpt lat="44.5709" lon="5.25852">
        <ele>888.88</ele>
        <time>2025-03-02T08:56:21Z</time>
      </trkpt>
      <trkpt lat="44.57091" lon="5.25835">
        <ele>885.99</ele>
        <time>2025-03-02T08:56:35Z</time>
      </trkpt>
      <trkpt lat="44.5709" lon="5.2583">
        <ele>885.03</ele>
        <time>2025-03-02T08:56:38Z</time>
      </trkpt>
      <trkpt lat="44.57083" lon="5.25806">
        <ele>882.63</ele>
        <time>2025-03-02T08:56:55Z</time>
      </trkpt>
      <trkpt lat="44.57081" lon="5.25787">
        <ele>881.19</ele>
        <time>2025-03-02T08:57:10Z</time>
      </trkpt>
      <trkpt lat="44.57081" lon="5.25779">
        <ele>879.74</ele>
        <time>2025-03-02T08:57:22Z</time>
      </trkpt>
      <trkpt lat="44.57079" lon="5.25767">
        <ele>879.74</ele>
        <time>2025-03-02T08:57:37Z</time>
      </trkpt>
      <trkpt lat="44.57078" lon="5.25756">
        <ele>879.26</ele>
        <time>2025-03-02T08:57:52Z</time>
      </trkpt>
      <trkpt lat="44.57076" lon="5.25732">
        <ele>877.82</ele>
        <time>2025-03-02T08:58:10Z</time>
      </trkpt>
      <trkpt lat="44.57078" lon="5.25716">
        <ele>877.34</ele>
        <time>2025-03-02T08:58:24Z</time>
      </trkpt>
      <trkpt lat="44.57077" lon="5.25689">
        <ele>877.34</ele>
        <time>2025-03-02T08:58:42Z</time>
      </trkpt>
      <trkpt lat="44.57076" lon="5.25677">
        <ele>878.78</ele>
        <time>2025-03-02T08:58:50Z</time>
      </trkpt>
      <trkpt lat="44.57078" lon="5.25651">
        <ele>878.3</ele>
        <time>2025-03-02T08:59:05Z</time>
      </trkpt>
      <trkpt lat="44.5708" lon="5.25637">
        <ele>877.34</ele>
        <time>2025-03-02T08:59:14Z</time>
      </trkpt>
      <trkpt lat="44.57086" lon="5.25618">
        <ele>875.42</ele>
        <time>2025-03-02T08:59:28Z</time>
      </trkpt>
      <trkpt lat="44.57089" lon="5.25598">
        <ele>875.42</ele>
        <time>2025-03-02T08:59:40Z</time>
      </trkpt>
      <trkpt lat="44.57085" lon="5.25578">
        <ele>876.86</ele>
        <time>2025-03-02T08:59:50Z</time>
      </trkpt>
      <trkpt lat="44.57085" lon="5.2556">
        <ele>877.34</ele>
        <time>2025-03-02T09:00:04Z</time>
      </trkpt>
      <trkpt lat="44.57085" lon="5.25558">
        <ele>877.34</ele>
        <time>2025-03-02T09:00:05Z</time>
      </trkpt>
      <trkpt lat="44.57089" lon="5.25543">
        <ele>877.34</ele>
        <time>2025-03-02T09:00:17Z</time>
      </trkpt>
      <trkpt lat="44.57094" lon="5.25534">
        <ele>875.9</ele>
        <time>2025-03-02T09:00:26Z</time>
      </trkpt>
      <trkpt lat="44.57096" lon="5.25528">
        <ele>875.42</ele>
        <time>2025-03-02T09:00:30Z</time>
      </trkpt>
      <trkpt lat="44.57102" lon="5.25507">
        <ele>875.42</ele>
        <time>2025-03-02T09:00:44Z</time>
      </trkpt>
      <trkpt lat="44.5711" lon="5.25486">
        <ele>876.86</ele>
        <time>2025-03-02T09:01:00Z</time>
      </trkpt>
      <trkpt lat="44.57117" lon="5.25462">
        <ele>877.82</ele>
        <time>2025-03-02T09:01:16Z</time>
      </trkpt>
      <trkpt lat="44.57125" lon="5.25438">
        <ele>879.74</ele>
        <time>2025-03-02T09:01:32Z</time>
      </trkpt>
      <trkpt lat="44.57132" lon="5.25421">
        <ele>881.19</ele>
        <time>2025-03-02T09:01:46Z</time>
      </trkpt>
      <trkpt lat="44.57133" lon="5.25401">
        <ele>882.15</ele>
        <time>2025-03-02T09:02:01Z</time>
      </trkpt>
      <trkpt lat="44.57132" lon="5.25384">
        <ele>882.63</ele>
        <time>2025-03-02T09:02:14Z</time>
      </trkpt>
      <trkpt lat="44.57134" lon="5.25358">
        <ele>883.11</ele>
        <time>2025-03-02T09:02:29Z</time>
      </trkpt>
      <trkpt lat="44.57142" lon="5.25332">
        <ele>883.11</ele>
        <time>2025-03-02T09:02:46Z</time>
      </trkpt>
      <trkpt lat="44.57149" lon="5.25311">
        <ele>882.63</ele>
        <time>2025-03-02T09:03:00Z</time>
      </trkpt>
      <trkpt lat="44.57156" lon="5.25286">
        <ele>882.63</ele>
        <time>2025-03-02T09:03:16Z</time>
      </trkpt>
      <trkpt lat="44.57165" lon="5.25263">
        <ele>881.67</ele>
        <time>2025-03-02T09:03:32Z</time>
      </trkpt>
      <trkpt lat="44.57168" lon="5.25243">
        <ele>882.63</ele>
        <time>2025-03-02T09:03:45Z</time>
      </trkpt>
      <trkpt lat="44.5716" lon="5.25227">
        <ele>884.55</ele>
        <time>2025-03-02T09:04:00Z</time>
      </trkpt>
      <trkpt lat="44.57151" lon="5.25211">
        <ele>886.95</ele>
        <time>2025-03-02T09:04:14Z</time>
      </trkpt>
      <trkpt lat="44.57142" lon="5.25199">
        <ele>889.36</ele>
        <time>2025-03-02T09:04:28Z</time>
      </trkpt>
      <trkpt lat="44.57136" lon="5.25191">
        <ele>891.76</ele>
        <time>2025-03-02T09:04:41Z</time>
      </trkpt>
      <trkpt lat="44.57129" lon="5.25179">
        <ele>894.64</ele>
        <time>2025-03-02T09:04:56Z</time>
      </trkpt>
      <trkpt lat="44.57127" lon="5.25174">
        <ele>895.12</ele>
        <time>2025-03-02T09:05:00Z</time>
      </trkpt>
      <trkpt lat="44.57125" lon="5.25157">
        <ele>896.57</ele>
        <time>2025-03-02T09:05:15Z</time>
      </trkpt>
      <trkpt lat="44.57123" lon="5.25137">
        <ele>899.45</ele>
        <time>2025-03-02T09:05:32Z</time>
      </trkpt>
      <trkpt lat="44.57114" lon="5.25122">
        <ele>902.33</ele>
        <time>2025-03-02T09:05:48Z</time>
      </trkpt>
      <trkpt lat="44.57104" lon="5.25109">
        <ele>904.26</ele>
        <time>2025-03-02T09:06:03Z</time>
      </trkpt>
      <trkpt lat="44.57095" lon="5.251">
        <ele>906.18</ele>
        <time>2025-03-02T09:06:17Z</time>
      </trkpt>
      <trkpt lat="44.57086" lon="5.25084">
        <ele>907.62</ele>
        <time>2025-03-02T09:06:32Z</time>
      </trkpt>
      <trkpt lat="44.57077" lon="5.25073">
        <ele>910.03</ele>
        <time>2025-03-02T09:06:47Z</time>
      </trkpt>
      <trkpt lat="44.57066" lon="5.25063">
        <ele>912.43</ele>
        <time>2025-03-02T09:07:00Z</time>
      </trkpt>
      <trkpt lat="44.57055" lon="5.25055">
        <ele>914.35</ele>
        <time>2025-03-02T09:07:14Z</time>
      </trkpt>
      <trkpt lat="44.57049" lon="5.25044">
        <ele>917.24</ele>
        <time>2025-03-02T09:07:28Z</time>
      </trkpt>
      <trkpt lat="44.5705" lon="5.25034">
        <ele>919.16</ele>
        <time>2025-03-02T09:07:40Z</time>
      </trkpt>
      <trkpt lat="44.57045" lon="5.2502">
        <ele>922.52</ele>
        <time>2025-03-02T09:07:57Z</time>
      </trkpt>
      <trkpt lat="44.57043" lon="5.25008">
        <ele>925.41</ele>
        <time>2025-03-02T09:08:12Z</time>
      </trkpt>
      <trkpt lat="44.57036" lon="5.24994">
        <ele>928.77</ele>
        <time>2025-03-02T09:08:30Z</time>
      </trkpt>
      <trkpt lat="44.57026" lon="5.2499">
        <ele>931.17</ele>
        <time>2025-03-02T09:08:44Z</time>
      </trkpt>
      <trkpt lat="44.57019" lon="5.24979">
        <ele>934.06</ele>
        <time>2025-03-02T09:09:01Z</time>
      </trkpt>
      <trkpt lat="44.57013" lon="5.24967">
        <ele>936.94</ele>
        <time>2025-03-02T09:09:17Z</time>
      </trkpt>
      <trkpt lat="44.57009" lon="5.24957">
        <ele>939.83</ele>
        <time>2025-03-02T09:09:32Z</time>
      </trkpt>
      <trkpt lat="44.57002" lon="5.24947">
        <ele>943.19</ele>
        <time>2025-03-02T09:09:47Z</time>
      </trkpt>
      <trkpt lat="44.56994" lon="5.2494">
        <ele>946.07</ele>
        <time>2025-03-02T09:10:03Z</time>
      </trkpt>
      <trkpt lat="44.56983" lon="5.24936">
        <ele>948.96</ele>
        <time>2025-03-02T09:10:19Z</time>
      </trkpt>
      <trkpt lat="44.56983" lon="5.2493">
        <ele>951.36</ele>
        <time>2025-03-02T09:10:33Z</time>
      </trkpt>
      <trkpt lat="44.5699" lon="5.24922">
        <ele>954.25</ele>
        <time>2025-03-02T09:10:48Z</time>
      </trkpt>
      <trkpt lat="44.56998" lon="5.24914">
        <ele>957.13</ele>
        <time>2025-03-02T09:11:08Z</time>
      </trkpt>
      <trkpt lat="44.57003" lon="5.24906">
        <ele>960.01</ele>
        <time>2025-03-02T09:11:26Z</time>
      </trkpt>
      <trkpt lat="44.57008" lon="5.24898">
        <ele>962.42</ele>
        <time>2025-03-02T09:11:45Z</time>
      </trkpt>
      <trkpt lat="44.57007" lon="5.2489">
        <ele>965.78</ele>
        <time>2025-03-02T09:19:16Z</time>
      </trkpt>
      <trkpt lat="44.57004" lon="5.2488">
        <ele>969.15</ele>
        <time>2025-03-02T09:19:29Z</time>
      </trkpt>
      <trkpt lat="44.57002" lon="5.24868">
        <ele>972.03</ele>
        <time>2025-03-02T09:19:44Z</time>
      </trkpt>
      <trkpt lat="44.57" lon="5.24852">
        <ele>974.91</ele>
        <time>2025-03-02T09:20:01Z</time>
      </trkpt>
      <trkpt lat="44.56995" lon="5.24837">
        <ele>978.28</ele>
        <time>2025-03-02T09:20:17Z</time>
      </trkpt>
      <trkpt lat="44.5699" lon="5.24825">
        <ele>980.68</ele>
        <time>2025-03-02T09:20:32Z</time>
      </trkpt>
      <trkpt lat="44.5699" lon="5.24809">
        <ele>983.09</ele>
        <time>2025-03-02T09:20:49Z</time>
      </trkpt>
      <trkpt lat="44.56991" lon="5.24795">
        <ele>985.49</ele>
        <time>2025-03-02T09:21:03Z</time>
      </trkpt>
      <trkpt lat="44.56988" lon="5.24778">
        <ele>987.41</ele>
        <time>2025-03-02T09:21:18Z</time>
      </trkpt>
      <trkpt lat="44.56987" lon="5.24764">
        <ele>990.3</ele>
        <time>2025-03-02T09:21:33Z</time>
      </trkpt>
      <trkpt lat="44.56981" lon="5.24746">
        <ele>992.22</ele>
        <time>2025-03-02T09:21:47Z</time>
      </trkpt>
      <trkpt lat="44.5698" lon="5.24744">
        <ele>992.22</ele>
        <time>2025-03-02T09:21:48Z</time>
      </trkpt>
      <trkpt lat="44.56977" lon="5.24721">
        <ele>992.7</ele>
        <time>2025-03-02T09:22:05Z</time>
      </trkpt>
      <trkpt lat="44.56977" lon="5.24706">
        <ele>992.7</ele>
        <time>2025-03-02T09:22:16Z</time>
      </trkpt>
      <trkpt lat="44.56973" lon="5.24679">
        <ele>993.18</ele>
        <time>2025-03-02T09:22:31Z</time>
      </trkpt>
      <trkpt lat="44.56974" lon="5.24657">
        <ele>994.14</ele>
        <time>2025-03-02T09:22:46Z</time>
      </trkpt>
      <trkpt lat="44.56974" lon="5.24631">
        <ele>994.14</ele>
        <time>2025-03-02T09:23:01Z</time>
      </trkpt>
      <trkpt lat="44.56974" lon="5.24611">
        <ele>996.06</ele>
        <time>2025-03-02T09:23:15Z</time>
      </trkpt>
      <trkpt lat="44.56977" lon="5.24589">
        <ele>996.06</ele>
        <time>2025-03-02T09:23:30Z</time>
      </trkpt>
      <trkpt lat="44.56976" lon="5.24567">
        <ele>996.06</ele>
        <time>2025-03-02T09:23:44Z</time>
      </trkpt>
      <trkpt lat="44.56977" lon="5.24549">
        <ele>997.02</ele>
        <time>2025-03-02T09:23:58Z</time>
      </trkpt>
      <trkpt lat="44.56983" lon="5.24526">
        <ele>999.43</ele>
        <time>2025-03-02T09:24:12Z</time>
      </trkpt>
      <trkpt lat="44.56989" lon="5.24503">
        <ele>1001.83</ele>
        <time>2025-03-02T09:24:28Z</time>
      </trkpt>
      <trkpt lat="44.56999" lon="5.24478">
        <ele>1004.23</ele>
        <time>2025-03-02T09:24:46Z</time>
      </trkpt>
      <trkpt lat="44.57006" lon="5.2446">
        <ele>1005.68</ele>
        <time>2025-03-02T09:25:01Z</time>
      </trkpt>
      <trkpt lat="44.57015" lon="5.24442">
        <ele>1007.6</ele>
        <time>2025-03-02T09:25:13Z</time>
      </trkpt>
      <trkpt lat="44.57022" lon="5.24422">
        <ele>1007.6</ele>
        <time>2025-03-02T09:25:27Z</time>
      </trkpt>
      <trkpt lat="44.57026" lon="5.24415">
        <ele>1006.16</ele>
        <time>2025-03-02T09:25:32Z</time>
      </trkpt>
      <trkpt lat="44.57031" lon="5.24397">
        <ele>1006.16</ele>
        <time>2025-03-02T09:25:42Z</time>
      </trkpt>
      <trkpt lat="44.57034" lon="5.2437">
        <ele>1006.16</ele>
        <time>2025-03-02T09:25:58Z</time>
      </trkpt>
      <trkpt lat="44.57025" lon="5.24346">
        <ele>1004.72</ele>
        <time>2025-03-02T09:26:14Z</time>
      </trkpt>
      <trkpt lat="44.57016" lon="5.24322">
        <ele>1004.23</ele>
        <time>2025-03-02T09:26:30Z</time>
      </trkpt>
      <trkpt lat="44.57011" lon="5.24297">
        <ele>1004.23</ele>
        <time>2025-03-02T09:26:46Z</time>
      </trkpt>
      <trkpt lat="44.5701" lon="5.24284">
        <ele>1004.23</ele>
        <time>2025-03-02T09:26:58Z</time>
      </trkpt>
      <trkpt lat="44.57009" lon="5.24283">
        <ele>1004.23</ele>
        <time>2025-03-02T09:27:10Z</time>
      </trkpt>
      <trkpt lat="44.57006" lon="5.24279">
        <ele>1004.23</ele>
        <time>2025-03-02T09:33:26Z</time>
      </trkpt>
      <trkpt lat="44.57004" lon="5.24279">
        <ele>1004.23</ele>
        <time>2025-03-02T09:33:29Z</time>
      </trkpt>
      <trkpt lat="44.56996" lon="5.24276">
        <ele>1003.27</ele>
        <time>2025-03-02T09:33:37Z</time>
      </trkpt>
      <trkpt lat="44.5699" lon="5.2426">
        <ele>1001.83</ele>
        <time>2025-03-02T09:33:51Z</time>
      </trkpt>
      <trkpt lat="44.5699" lon="5.24259">
        <ele>1001.35</ele>
        <time>2025-03-02T09:33:52Z</time>
      </trkpt>
      <trkpt lat="44.56989" lon="5.24231">
        <ele>1000.39</ele>
        <time>2025-03-02T09:34:09Z</time>
      </trkpt>
      <trkpt lat="44.56989" lon="5.24226">
        <ele>1000.39</ele>
        <time>2025-03-02T09:34:13Z</time>
      </trkpt>
      <trkpt lat="44.56991" lon="5.24218">
        <ele>999.91</ele>
        <time>2025-03-02T09:34:18Z</time>
      </trkpt>
      <trkpt lat="44.56995" lon="5.24187">
        <ele>998.47</ele>
        <time>2025-03-02T09:34:36Z</time>
      </trkpt>
      <trkpt lat="44.56996" lon="5.24149">
        <ele>996.54</ele>
        <time>2025-03-02T09:34:56Z</time>
      </trkpt>
      <trkpt lat="44.57" lon="5.24126">
        <ele>995.1</ele>
        <time>2025-03-02T09:35:09Z</time>
      </trkpt>
      <trkpt lat="44.56994" lon="5.24118">
        <ele>993.18</ele>
        <time>2025-03-02T09:35:22Z</time>
      </trkpt>
      <trkpt lat="44.56993" lon="5.2412">
        <ele>992.7</ele>
        <time>2025-03-02T09:35:43Z</time>
      </trkpt>
      <trkpt lat="44.56991" lon="5.24129">
        <ele>992.22</ele>
        <time>2025-03-02T09:35:57Z</time>
      </trkpt>
      <trkpt lat="44.56991" lon="5.24132">
        <ele>991.74</ele>
        <time>2025-03-02T09:36:00Z</time>
      </trkpt>
      <trkpt lat="44.5698" lon="5.24153">
        <ele>990.78</ele>
        <time>2025-03-02T09:36:16Z</time>
      </trkpt>
      <trkpt lat="44.56965" lon="5.24176">
        <ele>989.33</ele>
        <time>2025-03-02T09:36:35Z</time>
      </trkpt>
      <trkpt lat="44.56953" lon="5.24204">
        <ele>986.93</ele>
        <time>2025-03-02T09:36:54Z</time>
      </trkpt>
      <trkpt lat="44.56946" lon="5.2423">
        <ele>984.05</ele>
        <time>2025-03-02T09:37:11Z</time>
      </trkpt>
      <trkpt lat="44.56934" lon="5.24251">
        <ele>980.68</ele>
        <time>2025-03-02T09:37:25Z</time>
      </trkpt>
      <trkpt lat="44.56929" lon="5.24262">
        <ele>979.24</ele>
        <time>2025-03-02T09:37:34Z</time>
      </trkpt>
      <trkpt lat="44.56911" lon="5.24272">
        <ele>975.88</ele>
        <time>2025-03-02T09:37:51Z</time>
      </trkpt>
      <trkpt lat="44.56899" lon="5.24251">
        <ele>974.91</ele>
        <time>2025-03-02T09:38:04Z</time>
      </trkpt>
      <trkpt lat="44.56894" lon="5.24218">
        <ele>972.51</ele>
        <time>2025-03-02T09:38:22Z</time>
      </trkpt>
      <trkpt lat="44.56885" lon="5.24196">
        <ele>971.07</ele>
        <time>2025-03-02T09:38:37Z</time>
      </trkpt>
      <trkpt lat="44.56876" lon="5.24178">
        <ele>970.11</ele>
        <time>2025-03-02T09:38:50Z</time>
      </trkpt>
      <trkpt lat="44.56866" lon="5.24152">
        <ele>969.15</ele>
        <time>2025-03-02T09:39:06Z</time>
      </trkpt>
      <trkpt lat="44.56865" lon="5.24148">
        <ele>968.67</ele>
        <time>2025-03-02T09:39:08Z</time>
      </trkpt>
      <trkpt lat="44.56857" lon="5.24124">
        <ele>968.18</ele>
        <time>2025-03-02T09:39:22Z</time>
      </trkpt>
      <trkpt lat="44.56841" lon="5.24107">
        <ele>967.7</ele>
        <time>2025-03-02T09:39:39Z</time>
      </trkpt>
      <trkpt lat="44.5682" lon="5.2411">
        <ele>967.22</ele>
        <time>2025-03-02T09:39:55Z</time>
      </trkpt>
      <trkpt lat="44.568" lon="5.2412">
        <ele>965.3</ele>
        <time>2025-03-02T09:40:12Z</time>
      </trkpt>
      <trkpt lat="44.56783" lon="5.24143">
        <ele>963.86</ele>
        <time>2025-03-02T09:40:29Z</time>
      </trkpt>
      <trkpt lat="44.56771" lon="5.24157">
        <ele>962.9</ele>
        <time>2025-03-02T09:40:41Z</time>
      </trkpt>
      <trkpt lat="44.56765" lon="5.24162">
        <ele>962.9</ele>
        <time>2025-03-02T09:40:47Z</time>
      </trkpt>
      <trkpt lat="44.56746" lon="5.24174">
        <ele>960.98</ele>
        <time>2025-03-02T09:41:04Z</time>
      </trkpt>
      <trkpt lat="44.56727" lon="5.24184">
        <ele>959.05</ele>
        <time>2025-03-02T09:41:20Z</time>
      </trkpt>
      <trkpt lat="44.56705" lon="5.24189">
        <ele>957.61</ele>
        <time>2025-03-02T09:41:36Z</time>
      </trkpt>
      <trkpt lat="44.5669" lon="5.24194">
        <ele>956.65</ele>
        <time>2025-03-02T09:41:51Z</time>
      </trkpt>
      <trkpt lat="44.56686" lon="5.24195">
        <ele>956.65</ele>
        <time>2025-03-02T09:42:01Z</time>
      </trkpt>
      <trkpt lat="44.56678" lon="5.24198">
        <ele>956.65</ele>
        <time>2025-03-02T09:42:08Z</time>
      </trkpt>
      <trkpt lat="44.56673" lon="5.24198">
        <ele>956.65</ele>
        <time>2025-03-02T09:42:12Z</time>
      </trkpt>
      <trkpt lat="44.56652" lon="5.24204">
        <ele>956.17</ele>
        <time>2025-03-02T09:42:29Z</time>
      </trkpt>
      <trkpt lat="44.5663" lon="5.24213">
        <ele>957.13</ele>
        <time>2025-03-02T09:42:47Z</time>
      </trkpt>
      <trkpt lat="44.56606" lon="5.24209">
        <ele>957.61</ele>
        <time>2025-03-02T09:43:05Z</time>
      </trkpt>
      <trkpt lat="44.56587" lon="5.24185">
        <ele>956.17</ele>
        <time>2025-03-02T09:43:24Z</time>
      </trkpt>
      <trkpt lat="44.56569" lon="5.24164">
        <ele>955.69</ele>
        <time>2025-03-02T09:43:42Z</time>
      </trkpt>
      <trkpt lat="44.56563" lon="5.24134">
        <ele>957.61</ele>
        <time>2025-03-02T09:43:59Z</time>
      </trkpt>
      <trkpt lat="44.56566" lon="5.24104">
        <ele>958.57</ele>
        <time>2025-03-02T09:44:15Z</time>
      </trkpt>
      <trkpt lat="44.56566" lon="5.24102">
        <ele>959.05</ele>
        <time>2025-03-02T09:44:16Z</time>
      </trkpt>
      <trkpt lat="44.56569" lon="5.24097">
        <ele>959.05</ele>
        <time>2025-03-02T09:44:20Z</time>
      </trkpt>
      <trkpt lat="44.56576" lon="5.24076">
        <ele>959.05</ele>
        <time>2025-03-02T09:44:34Z</time>
      </trkpt>
      <trkpt lat="44.56574" lon="5.24068">
        <ele>957.61</ele>
        <time>2025-03-02T09:44:39Z</time>
      </trkpt>
      <trkpt lat="44.56572" lon="5.24066">
        <ele>957.13</ele>
        <time>2025-03-02T09:44:41Z</time>
      </trkpt>
      <trkpt lat="44.56568" lon="5.24065">
        <ele>957.13</ele>
        <time>2025-03-02T09:44:45Z</time>
      </trkpt>
      <trkpt lat="44.56566" lon="5.24066">
        <ele>957.13</ele>
        <time>2025-03-02T09:44:47Z</time>
      </trkpt>
      <trkpt lat="44.56556" lon="5.24067">
        <ele>957.13</ele>
        <time>2025-03-02T09:44:56Z</time>
      </trkpt>
      <trkpt lat="44.56537" lon="5.24061">
        <ele>956.65</ele>
        <time>2025-03-02T09:45:12Z</time>
      </trkpt>
      <trkpt lat="44.56536" lon="5.24061">
        <ele>956.65</ele>
        <time>2025-03-02T09:45:15Z</time>
      </trkpt>
      <trkpt lat="44.56527" lon="5.24056">
        <ele>957.61</ele>
        <time>2025-03-02T09:45:25Z</time>
      </trkpt>
      <trkpt lat="44.5651" lon="5.24054">
        <ele>959.53</ele>
        <time>2025-03-02T09:45:40Z</time>
      </trkpt>
      <trkpt lat="44.56491" lon="5.24048">
        <ele>960.98</ele>
        <time>2025-03-02T09:45:56Z</time>
      </trkpt>
      <trkpt lat="44.5647" lon="5.2405">
        <ele>961.94</ele>
        <time>2025-03-02T09:46:14Z</time>
      </trkpt>
      <trkpt lat="44.56454" lon="5.24068">
        <ele>961.94</ele>
        <time>2025-03-02T09:46:31Z</time>
      </trkpt>
      <trkpt lat="44.56442" lon="5.24091">
        <ele>962.9</ele>
        <time>2025-03-02T09:46:48Z</time>
      </trkpt>
      <trkpt lat="44.56429" lon="5.24115">
        <ele>962.9</ele>
        <time>2025-03-02T09:47:04Z</time>
      </trkpt>
      <trkpt lat="44.56422" lon="5.24136">
        <ele>963.38</ele>
        <time>2025-03-02T09:47:18Z</time>
      </trkpt>
      <trkpt lat="44.56418" lon="5.2415">
        <ele>963.38</ele>
        <time>2025-03-02T09:47:28Z</time>
      </trkpt>
      <trkpt lat="44.56416" lon="5.2415">
        <ele>963.38</ele>
        <time>2025-03-02T09:47:30Z</time>
      </trkpt>
      <trkpt lat="44.56413" lon="5.24154">
        <ele>963.38</ele>
        <time>2025-03-02T09:47:33Z</time>
      </trkpt>
      <trkpt lat="44.56411" lon="5.2416">
        <ele>963.86</ele>
        <time>2025-03-02T09:47:38Z</time>
      </trkpt>
      <trkpt lat="44.56404" lon="5.24181">
        <ele>965.78</ele>
        <time>2025-03-02T09:47:53Z</time>
      </trkpt>
      <trkpt lat="44.56385" lon="5.24193">
        <ele>966.74</ele>
        <time>2025-03-02T09:48:10Z</time>
      </trkpt>
      <trkpt lat="44.56364" lon="5.24197">
        <ele>967.7</ele>
        <time>2025-03-02T09:48:28Z</time>
      </trkpt>
      <trkpt lat="44.56347" lon="5.24201">
        <ele>969.15</ele>
        <time>2025-03-02T09:48:43Z</time>
      </trkpt>
      <trkpt lat="44.56329" lon="5.24206">
        <ele>970.11</ele>
        <time>2025-03-02T09:48:58Z</time>
      </trkpt>
      <trkpt lat="44.5631" lon="5.24211">
        <ele>971.07</ele>
        <time>2025-03-02T09:49:14Z</time>
      </trkpt>
      <trkpt lat="44.5629" lon="5.24217">
        <ele>972.51</ele>
        <time>2025-03-02T09:49:30Z</time>
      </trkpt>
      <trkpt lat="44.5627" lon="5.24221">
        <ele>974.43</ele>
        <time>2025-03-02T09:49:47Z</time>
      </trkpt>
      <trkpt lat="44.56257" lon="5.24217">
        <ele>974.91</ele>
        <time>2025-03-02T09:50:00Z</time>
      </trkpt>
      <trkpt lat="44.56242" lon="5.24206">
        <ele>976.36</ele>
        <time>2025-03-02T09:50:14Z</time>
      </trkpt>
      <trkpt lat="44.56229" lon="5.24185">
        <ele>976.84</ele>
        <time>2025-03-02T09:50:29Z</time>
      </trkpt>
      <trkpt lat="44.56228" lon="5.24155">
        <ele>976.84</ele>
        <time>2025-03-02T09:50:45Z</time>
      </trkpt>
      <trkpt lat="44.56239" lon="5.24127">
        <ele>974.43</ele>
        <time>2025-03-02T09:51:02Z</time>
      </trkpt>
      <trkpt lat="44.56241" lon="5.241">
        <ele>973.47</ele>
        <time>2025-03-02T09:51:20Z</time>
      </trkpt>
      <trkpt lat="44.56223" lon="5.24083">
        <ele>972.51</ele>
        <time>2025-03-02T09:51:38Z</time>
      </trkpt>
      <trkpt lat="44.56204" lon="5.24069">
        <ele>972.03</ele>
        <time>2025-03-02T09:51:55Z</time>
      </trkpt>
      <trkpt lat="44.562" lon="5.24044">
        <ele>972.03</ele>
        <time>2025-03-02T09:52:10Z</time>
      </trkpt>
      <trkpt lat="44.5619" lon="5.24026">
        <ele>972.03</ele>
        <time>2025-03-02T09:52:24Z</time>
      </trkpt>
      <trkpt lat="44.56169" lon="5.24009">
        <ele>970.59</ele>
        <time>2025-03-02T09:52:43Z</time>
      </trkpt>
      <trkpt lat="44.56145" lon="5.24011">
        <ele>968.67</ele>
        <time>2025-03-02T09:53:00Z</time>
      </trkpt>
      <trkpt lat="44.56121" lon="5.24006">
        <ele>967.22</ele>
        <time>2025-03-02T09:53:18Z</time>
      </trkpt>
      <trkpt lat="44.56097" lon="5.23999">
        <ele>966.26</ele>
        <time>2025-03-02T09:53:36Z</time>
      </trkpt>
      <trkpt lat="44.56078" lon="5.2398">
        <ele>966.26</ele>
        <time>2025-03-02T09:53:56Z</time>
      </trkpt>
      <trkpt lat="44.56057" lon="5.23966">
        <ele>966.26</ele>
        <time>2025-03-02T09:54:14Z</time>
      </trkpt>
      <trkpt lat="44.56033" lon="5.23964">
        <ele>966.74</ele>
        <time>2025-03-02T09:54:32Z</time>
      </trkpt>
      <trkpt lat="44.56007" lon="5.2397">
        <ele>965.3</ele>
        <time>2025-03-02T09:54:52Z</time>
      </trkpt>
      <trkpt lat="44.55982" lon="5.23977">
        <ele>964.82</ele>
        <time>2025-03-02T09:55:11Z</time>
      </trkpt>
      <trkpt lat="44.55955" lon="5.23972">
        <ele>963.38</ele>
        <time>2025-03-02T09:55:31Z</time>
      </trkpt>
      <trkpt lat="44.55929" lon="5.23972">
        <ele>962.42</ele>
        <time>2025-03-02T09:55:50Z</time>
      </trkpt>
      <trkpt lat="44.55909" lon="5.23962">
        <ele>962.42</ele>
        <time>2025-03-02T09:56:07Z</time>
      </trkpt>
      <trkpt lat="44.55891" lon="5.23956">
        <ele>960.98</ele>
        <time>2025-03-02T09:56:23Z</time>
      </trkpt>
      <trkpt lat="44.55879" lon="5.23946">
        <ele>960.49</ele>
        <time>2025-03-02T10:02:08Z</time>
      </trkpt>
      <trkpt lat="44.55872" lon="5.23943">
        <ele>961.94</ele>
        <time>2025-03-02T10:02:14Z</time>
      </trkpt>
      <trkpt lat="44.55862" lon="5.23939">
        <ele>962.42</ele>
        <time>2025-03-02T10:02:24Z</time>
      </trkpt>
      <trkpt lat="44.55845" lon="5.23932">
        <ele>964.34</ele>
        <time>2025-03-02T10:02:40Z</time>
      </trkpt>
      <trkpt lat="44.55824" lon="5.23926">
        <ele>966.26</ele>
        <time>2025-03-02T10:02:58Z</time>
      </trkpt>
      <trkpt lat="44.55807" lon="5.23921">
        <ele>968.18</ele>
        <time>2025-03-02T10:03:13Z</time>
      </trkpt>
      <trkpt lat="44.55791" lon="5.23916">
        <ele>970.11</ele>
        <time>2025-03-02T10:03:27Z</time>
      </trkpt>
      <trkpt lat="44.55773" lon="5.23905">
        <ele>971.55</ele>
        <time>2025-03-02T10:03:43Z</time>
      </trkpt>
      <trkpt lat="44.55755" lon="5.23891">
        <ele>972.99</ele>
        <time>2025-03-02T10:04:00Z</time>
      </trkpt>
      <trkpt lat="44.55749" lon="5.23886">
        <ele>973.47</ele>
        <time>2025-03-02T10:04:06Z</time>
      </trkpt>
      <trkpt lat="44.55734" lon="5.23872">
        <ele>975.39</ele>
        <time>2025-03-02T10:04:22Z</time>
      </trkpt>
      <trkpt lat="44.55721" lon="5.23853">
        <ele>977.8</ele>
        <time>2025-03-02T10:04:38Z</time>
      </trkpt>
      <trkpt lat="44.5571" lon="5.23833">
        <ele>980.68</ele>
        <time>2025-03-02T10:04:55Z</time>
      </trkpt>
      <trkpt lat="44.557" lon="5.23811">
        <ele>982.6</ele>
        <time>2025-03-02T10:05:12Z</time>
      </trkpt>
      <trkpt lat="44.55683" lon="5.23791">
        <ele>984.53</ele>
        <time>2025-03-02T10:05:30Z</time>
      </trkpt>
      <trkpt lat="44.55668" lon="5.23777">
        <ele>985.49</ele>
        <time>2025-03-02T10:05:45Z</time>
      </trkpt>
      <trkpt lat="44.5565" lon="5.23769">
        <ele>987.41</ele>
        <time>2025-03-02T10:06:02Z</time>
      </trkpt>
      <trkpt lat="44.55633" lon="5.23764">
        <ele>989.33</ele>
        <time>2025-03-02T10:06:17Z</time>
      </trkpt>
      <trkpt lat="44.55631" lon="5.23762">
        <ele>989.81</ele>
        <time>2025-03-02T10:06:20Z</time>
      </trkpt>
      <trkpt lat="44.55634" lon="5.2375">
        <ele>991.74</ele>
        <time>2025-03-02T10:06:31Z</time>
      </trkpt>
      <trkpt lat="44.55652" lon="5.23749">
        <ele>993.18</ele>
        <time>2025-03-02T10:06:46Z</time>
      </trkpt>
      <trkpt lat="44.55674" lon="5.23759">
        <ele>993.66</ele>
        <time>2025-03-02T10:07:04Z</time>
      </trkpt>
      <trkpt lat="44.55697" lon="5.2377">
        <ele>993.66</ele>
        <time>2025-03-02T10:07:22Z</time>
      </trkpt>
      <trkpt lat="44.55721" lon="5.23775">
        <ele>994.14</ele>
        <time>2025-03-02T10:07:41Z</time>
      </trkpt>
      <trkpt lat="44.55742" lon="5.23784">
        <ele>995.1</ele>
        <time>2025-03-02T10:07:58Z</time>
      </trkpt>
      <trkpt lat="44.5576" lon="5.23795">
        <ele>997.02</ele>
        <time>2025-03-02T10:08:14Z</time>
      </trkpt>
      <trkpt lat="44.55778" lon="5.23809">
        <ele>998.95</ele>
        <time>2025-03-02T10:08:31Z</time>
      </trkpt>
      <trkpt lat="44.55792" lon="5.23815">
        <ele>1001.35</ele>
        <time>2025-03-02T10:08:45Z</time>
      </trkpt>
      <trkpt lat="44.55798" lon="5.23813">
        <ele>1002.79</ele>
        <time>2025-03-02T10:08:53Z</time>
      </trkpt>
      <trkpt lat="44.55809" lon="5.23806">
        <ele>1005.2</ele>
        <time>2025-03-02T10:09:07Z</time>
      </trkpt>
      <trkpt lat="44.55822" lon="5.23797">
        <ele>1008.08</ele>
        <time>2025-03-02T10:09:23Z</time>
      </trkpt>
      <trkpt lat="44.55834" lon="5.2379">
        <ele>1010</ele>
        <time>2025-03-02T10:09:36Z</time>
      </trkpt>
      <trkpt lat="44.55845" lon="5.23779">
        <ele>1011.44</ele>
        <time>2025-03-02T10:09:49Z</time>
      </trkpt>
      <trkpt lat="44.55859" lon="5.23765">
        <ele>1013.37</ele>
        <time>2025-03-02T10:10:06Z</time>
      </trkpt>
      <trkpt lat="44.5587" lon="5.23751">
        <ele>1016.25</ele>
        <time>2025-03-02T10:10:22Z</time>
      </trkpt>
      <trkpt lat="44.55887" lon="5.23739">
        <ele>1018.17</ele>
        <time>2025-03-02T10:10:40Z</time>
      </trkpt>
      <trkpt lat="44.55902" lon="5.23732">
        <ele>1020.1</ele>
        <time>2025-03-02T10:10:55Z</time>
      </trkpt>
      <trkpt lat="44.55914" lon="5.23728">
        <ele>1022.02</ele>
        <time>2025-03-02T10:11:08Z</time>
      </trkpt>
      <trkpt lat="44.55922" lon="5.23729">
        <ele>1022.5</ele>
        <time>2025-03-02T10:11:24Z</time>
      </trkpt>
      <trkpt lat="44.55929" lon="5.23732">
        <ele>1022.5</ele>
        <time>2025-03-02T10:11:36Z</time>
      </trkpt>
      <trkpt lat="44.55942" lon="5.23729">
        <ele>1022.5</ele>
        <time>2025-03-02T10:11:54Z</time>
      </trkpt>
      <trkpt lat="44.55949" lon="5.2373">
        <ele>1023.46</ele>
        <time>2025-03-02T10:13:17Z</time>
      </trkpt>
      <trkpt lat="44.5596" lon="5.2373">
        <ele>1024.42</ele>
        <time>2025-03-02T10:13:31Z</time>
      </trkpt>
      <trkpt lat="44.55971" lon="5.23728">
        <ele>1025.86</ele>
        <time>2025-03-02T10:13:41Z</time>
      </trkpt>
      <trkpt lat="44.55981" lon="5.23726">
        <ele>1027.79</ele>
        <time>2025-03-02T10:13:56Z</time>
      </trkpt>
      <trkpt lat="44.55994" lon="5.23725">
        <ele>1029.71</ele>
        <time>2025-03-02T10:14:11Z</time>
      </trkpt>
      <trkpt lat="44.56007" lon="5.23714">
        <ele>1031.63</ele>
        <time>2025-03-02T10:14:26Z</time>
      </trkpt>
      <trkpt lat="44.56016" lon="5.23703">
        <ele>1035</ele>
        <time>2025-03-02T10:14:40Z</time>
      </trkpt>
      <trkpt lat="44.56023" lon="5.23693">
        <ele>1036.92</ele>
        <time>2025-03-02T10:14:54Z</time>
      </trkpt>
      <trkpt lat="44.56034" lon="5.23685">
        <ele>1040.28</ele>
        <time>2025-03-02T10:15:08Z</time>
      </trkpt>
      <trkpt lat="44.56047" lon="5.23683">
        <ele>1041.73</ele>
        <time>2025-03-02T10:15:21Z</time>
      </trkpt>
      <trkpt lat="44.56061" lon="5.23682">
        <ele>1043.17</ele>
        <time>2025-03-02T10:15:34Z</time>
      </trkpt>
      <trkpt lat="44.56074" lon="5.23681">
        <ele>1045.09</ele>
        <time>2025-03-02T10:15:46Z</time>
      </trkpt>
      <trkpt lat="44.56089" lon="5.23681">
        <ele>1047.49</ele>
        <time>2025-03-02T10:16:01Z</time>
      </trkpt>
      <trkpt lat="44.56103" lon="5.23678">
        <ele>1049.42</ele>
        <time>2025-03-02T10:16:16Z</time>
      </trkpt>
      <trkpt lat="44.56116" lon="5.23669">
        <ele>1051.82</ele>
        <time>2025-03-02T10:16:30Z</time>
      </trkpt>
      <trkpt lat="44.56129" lon="5.23655">
        <ele>1053.74</ele>
        <time>2025-03-02T10:16:46Z</time>
      </trkpt>
      <trkpt lat="44.56134" lon="5.23648">
        <ele>1054.7</ele>
        <time>2025-03-02T10:16:53Z</time>
      </trkpt>
      <trkpt lat="44.56138" lon="5.23643">
        <ele>1055.67</ele>
        <time>2025-03-02T10:16:58Z</time>
      </trkpt>
      <trkpt lat="44.56157" lon="5.23644">
        <ele>1057.59</ele>
        <time>2025-03-02T10:17:14Z</time>
      </trkpt>
      <trkpt lat="44.56172" lon="5.2365">
        <ele>1059.03</ele>
        <time>2025-03-02T10:17:29Z</time>
      </trkpt>
      <trkpt lat="44.56177" lon="5.23651">
        <ele>1059.51</ele>
        <time>2025-03-02T10:17:33Z</time>
      </trkpt>
      <trkpt lat="44.56193" lon="5.23651">
        <ele>1061.91</ele>
        <time>2025-03-02T10:17:49Z</time>
      </trkpt>
      <trkpt lat="44.56204" lon="5.23646">
        <ele>1063.84</ele>
        <time>2025-03-02T10:18:02Z</time>
      </trkpt>
      <trkpt lat="44.56216" lon="5.23639">
        <ele>1065.28</ele>
        <time>2025-03-02T10:18:14Z</time>
      </trkpt>
      <trkpt lat="44.56229" lon="5.23636">
        <ele>1067.2</ele>
        <time>2025-03-02T10:18:27Z</time>
      </trkpt>
      <trkpt lat="44.56244" lon="5.23638">
        <ele>1069.6</ele>
        <time>2025-03-02T10:18:42Z</time>
      </trkpt>
      <trkpt lat="44.56256" lon="5.23654">
        <ele>1071.05</ele>
        <time>2025-03-02T10:18:57Z</time>
      </trkpt>
      <trkpt lat="44.56265" lon="5.23669">
        <ele>1072.01</ele>
        <time>2025-03-02T10:19:10Z</time>
      </trkpt>
      <trkpt lat="44.56277" lon="5.23695">
        <ele>1072.97</ele>
        <time>2025-03-02T10:19:28Z</time>
      </trkpt>
      <trkpt lat="44.56283" lon="5.237">
        <ele>1073.93</ele>
        <time>2025-03-02T10:19:34Z</time>
      </trkpt>
      <trkpt lat="44.56297" lon="5.23703">
        <ele>1074.41</ele>
        <time>2025-03-02T10:19:49Z</time>
      </trkpt>
      <trkpt lat="44.563" lon="5.23703">
        <ele>1074.41</ele>
        <time>2025-03-02T10:19:52Z</time>
      </trkpt>
      <trkpt lat="44.5631" lon="5.237">
        <ele>1075.37</ele>
        <time>2025-03-02T10:20:02Z</time>
      </trkpt>
      <trkpt lat="44.56315" lon="5.237">
        <ele>1075.85</ele>
        <time>2025-03-02T10:20:06Z</time>
      </trkpt>
      <trkpt lat="44.56338" lon="5.23697">
        <ele>1076.81</ele>
        <time>2025-03-02T10:20:24Z</time>
      </trkpt>
      <trkpt lat="44.56353" lon="5.23689">
        <ele>1079.7</ele>
        <time>2025-03-02T10:20:39Z</time>
      </trkpt>
      <trkpt lat="44.5636" lon="5.23679">
        <ele>1080.66</ele>
        <time>2025-03-02T10:20:48Z</time>
      </trkpt>
      <trkpt lat="44.56364" lon="5.23668">
        <ele>1082.58</ele>
        <time>2025-03-02T10:21:02Z</time>
      </trkpt>
      <trkpt lat="44.56363" lon="5.23659">
        <ele>1083.54</ele>
        <time>2025-03-02T10:21:21Z</time>
      </trkpt>
      <trkpt lat="44.56365" lon="5.23648">
        <ele>1084.5</ele>
        <time>2025-03-02T10:23:31Z</time>
      </trkpt>
      <trkpt lat="44.56364" lon="5.2364">
        <ele>1085.47</ele>
        <time>2025-03-02T10:23:46Z</time>
      </trkpt>
      <trkpt lat="44.56365" lon="5.23638">
        <ele>1086.43</ele>
        <time>2025-03-02T10:23:59Z</time>
      </trkpt>
      <trkpt lat="44.56363" lon="5.23629">
        <ele>1086.91</ele>
        <time>2025-03-02T10:24:13Z</time>
      </trkpt>
      <trkpt lat="44.5637" lon="5.23617">
        <ele>1089.31</ele>
        <time>2025-03-02T10:24:26Z</time>
      </trkpt>
      <trkpt lat="44.56374" lon="5.23606">
        <ele>1090.75</ele>
        <time>2025-03-02T10:24:35Z</time>
      </trkpt>
      <trkpt lat="44.5638" lon="5.2359">
        <ele>1093.16</ele>
        <time>2025-03-02T10:24:50Z</time>
      </trkpt>
      <trkpt lat="44.56384" lon="5.23573">
        <ele>1095.56</ele>
        <time>2025-03-02T10:25:03Z</time>
      </trkpt>
      <trkpt lat="44.56389" lon="5.23556">
        <ele>1097</ele>
        <time>2025-03-02T10:25:17Z</time>
      </trkpt>
      <trkpt lat="44.56398" lon="5.23541">
        <ele>1098.92</ele>
        <time>2025-03-02T10:25:31Z</time>
      </trkpt>
      <trkpt lat="44.56402" lon="5.23535">
        <ele>1099.4</ele>
        <time>2025-03-02T10:25:38Z</time>
      </trkpt>
      <trkpt lat="44.56411" lon="5.23526">
        <ele>1101.33</ele>
        <time>2025-03-02T10:25:53Z</time>
      </trkpt>
      <trkpt lat="44.56411" lon="5.23523">
        <ele>1101.33</ele>
        <time>2025-03-02T10:26:10Z</time>
      </trkpt>
      <trkpt lat="44.56403" lon="5.23513">
        <ele>1103.73</ele>
        <time>2025-03-02T10:26:25Z</time>
      </trkpt>
      <trkpt lat="44.56398" lon="5.23506">
        <ele>1105.17</ele>
        <time>2025-03-02T10:26:34Z</time>
      </trkpt>
      <trkpt lat="44.56389" lon="5.23493">
        <ele>1107.58</ele>
        <time>2025-03-02T10:26:48Z</time>
      </trkpt>
      <trkpt lat="44.56382" lon="5.23478">
        <ele>1109.5</ele>
        <time>2025-03-02T10:27:06Z</time>
      </trkpt>
      <trkpt lat="44.56381" lon="5.23473">
        <ele>1110.46</ele>
        <time>2025-03-02T10:27:22Z</time>
      </trkpt>
      <trkpt lat="44.56383" lon="5.23467">
        <ele>1111.42</ele>
        <time>2025-03-02T10:27:51Z</time>
      </trkpt>
      <trkpt lat="44.56385" lon="5.23457">
        <ele>1114.31</ele>
        <time>2025-03-02T10:28:05Z</time>
      </trkpt>
      <trkpt lat="44.56391" lon="5.2345">
        <ele>1117.67</ele>
        <time>2025-03-02T10:28:20Z</time>
      </trkpt>
      <trkpt lat="44.56396" lon="5.23444">
        <ele>1120.55</ele>
        <time>2025-03-02T10:28:34Z</time>
      </trkpt>
      <trkpt lat="44.56407" lon="5.23442">
        <ele>1122.96</ele>
        <time>2025-03-02T10:28:49Z</time>
      </trkpt>
      <trkpt lat="44.56416" lon="5.23436">
        <ele>1125.36</ele>
        <time>2025-03-02T10:29:04Z</time>
      </trkpt>
      <trkpt lat="44.5642" lon="5.23425">
        <ele>1128.73</ele>
        <time>2025-03-02T10:29:21Z</time>
      </trkpt>
      <trkpt lat="44.56424" lon="5.23416">
        <ele>1131.61</ele>
        <time>2025-03-02T10:29:38Z</time>
      </trkpt>
      <trkpt lat="44.56428" lon="5.23406">
        <ele>1134.97</ele>
        <time>2025-03-02T10:29:54Z</time>
      </trkpt>
      <trkpt lat="44.56427" lon="5.23399">
        <ele>1137.38</ele>
        <time>2025-03-02T10:30:10Z</time>
      </trkpt>
      <trkpt lat="44.56426" lon="5.23387">
        <ele>1140.26</ele>
        <time>2025-03-02T10:30:26Z</time>
      </trkpt>
      <trkpt lat="44.5642" lon="5.2338">
        <ele>1142.66</ele>
        <time>2025-03-02T10:30:41Z</time>
      </trkpt>
      <trkpt lat="44.56419" lon="5.23367">
        <ele>1146.03</ele>
        <time>2025-03-02T10:30:58Z</time>
      </trkpt>
      <trkpt lat="44.56418" lon="5.23356">
        <ele>1148.43</ele>
        <time>2025-03-02T10:31:14Z</time>
      </trkpt>
      <trkpt lat="44.5642" lon="5.23346">
        <ele>1151.8</ele>
        <time>2025-03-02T10:31:29Z</time>
      </trkpt>
      <trkpt lat="44.56419" lon="5.23335">
        <ele>1154.2</ele>
        <time>2025-03-02T10:31:46Z</time>
      </trkpt>
      <trkpt lat="44.56417" lon="5.23327">
        <ele>1157.08</ele>
        <time>2025-03-02T10:32:01Z</time>
      </trkpt>
      <trkpt lat="44.56413" lon="5.23321">
        <ele>1159.97</ele>
        <time>2025-03-02T10:32:17Z</time>
      </trkpt>
      <trkpt lat="44.56414" lon="5.23312">
        <ele>1162.37</ele>
        <time>2025-03-02T10:32:34Z</time>
      </trkpt>
      <trkpt lat="44.56416" lon="5.23302">
        <ele>1165.74</ele>
        <time>2025-03-02T10:32:53Z</time>
      </trkpt>
      <trkpt lat="44.5642" lon="5.23294">
        <ele>1168.14</ele>
        <time>2025-03-02T10:33:07Z</time>
      </trkpt>
      <trkpt lat="44.56421" lon="5.23286">
        <ele>1170.06</ele>
        <time>2025-03-02T10:33:22Z</time>
      </trkpt>
      <trkpt lat="44.56424" lon="5.2328">
        <ele>1172.95</ele>
        <time>2025-03-02T10:33:37Z</time>
      </trkpt>
      <trkpt lat="44.56429" lon="5.23273">
        <ele>1175.83</ele>
        <time>2025-03-02T10:33:54Z</time>
      </trkpt>
      <trkpt lat="44.56434" lon="5.23269">
        <ele>1178.23</ele>
        <time>2025-03-02T10:34:09Z</time>
      </trkpt>
      <trkpt lat="44.56436" lon="5.23264">
        <ele>1181.12</ele>
        <time>2025-03-02T10:34:25Z</time>
      </trkpt>
      <trkpt lat="44.56438" lon="5.23264">
        <ele>1181.6</ele>
        <time>2025-03-02T10:34:44Z</time>
      </trkpt>
      <trkpt lat="44.5644" lon="5.23257">
        <ele>1184</ele>
        <time>2025-03-02T10:35:01Z</time>
      </trkpt>
      <trkpt lat="44.56442" lon="5.23251">
        <ele>1186.88</ele>
        <time>2025-03-02T10:35:17Z</time>
      </trkpt>
      <trkpt lat="44.56447" lon="5.23247">
        <ele>1190.25</ele>
        <time>2025-03-02T10:35:32Z</time>
      </trkpt>
      <trkpt lat="44.56453" lon="5.23242">
        <ele>1192.17</ele>
        <time>2025-03-02T10:35:46Z</time>
      </trkpt>
      <trkpt lat="44.56458" lon="5.23236">
        <ele>1194.09</ele>
        <time>2025-03-02T10:36:03Z</time>
      </trkpt>
      <trkpt lat="44.56461" lon="5.23227">
        <ele>1196.02</ele>
        <time>2025-03-02T10:36:20Z</time>
      </trkpt>
      <trkpt lat="44.56465" lon="5.23222">
        <ele>1197.46</ele>
        <time>2025-03-02T10:36:35Z</time>
      </trkpt>
      <trkpt lat="44.56468" lon="5.23217">
        <ele>1199.86</ele>
        <time>2025-03-02T10:36:52Z</time>
      </trkpt>
      <trkpt lat="44.56473" lon="5.23213">
        <ele>1202.75</ele>
        <time>2025-03-02T10:37:09Z</time>
      </trkpt>
      <trkpt lat="44.56486" lon="5.23207">
        <ele>1205.63</ele>
        <time>2025-03-02T10:37:28Z</time>
      </trkpt>
      <trkpt lat="44.56494" lon="5.232">
        <ele>1208.51</ele>
        <time>2025-03-02T10:37:45Z</time>
      </trkpt>
      <trkpt lat="44.56504" lon="5.23194">
        <ele>1211.88</ele>
        <time>2025-03-02T10:38:04Z</time>
      </trkpt>
      <trkpt lat="44.56513" lon="5.23191">
        <ele>1214.28</ele>
        <time>2025-03-02T10:38:21Z</time>
      </trkpt>
      <trkpt lat="44.56522" lon="5.23189">
        <ele>1216.21</ele>
        <time>2025-03-02T10:38:36Z</time>
      </trkpt>
      <trkpt lat="44.5653" lon="5.23186">
        <ele>1218.61</ele>
        <time>2025-03-02T10:38:51Z</time>
      </trkpt>
      <trkpt lat="44.5654" lon="5.23184">
        <ele>1220.05</ele>
        <time>2025-03-02T10:39:06Z</time>
      </trkpt>
      <trkpt lat="44.5655" lon="5.2318">
        <ele>1221.01</ele>
        <time>2025-03-02T10:39:20Z</time>
      </trkpt>
      <trkpt lat="44.5656" lon="5.23177">
        <ele>1222.93</ele>
        <time>2025-03-02T10:39:34Z</time>
      </trkpt>
      <trkpt lat="44.56563" lon="5.23176">
        <ele>1222.93</ele>
        <time>2025-03-02T10:39:37Z</time>
      </trkpt>
      <trkpt lat="44.56576" lon="5.23172">
        <ele>1224.86</ele>
        <time>2025-03-02T10:39:53Z</time>
      </trkpt>
      <trkpt lat="44.56582" lon="5.23167">
        <ele>1226.78</ele>
        <time>2025-03-02T10:40:06Z</time>
      </trkpt>
      <trkpt lat="44.56594" lon="5.23162">
        <ele>1229.66</ele>
        <time>2025-03-02T10:40:22Z</time>
      </trkpt>
      <trkpt lat="44.56601" lon="5.23159">
        <ele>1231.59</ele>
        <time>2025-03-02T10:40:35Z</time>
      </trkpt>
      <trkpt lat="44.56607" lon="5.23153">
        <ele>1234.47</ele>
        <time>2025-03-02T10:40:49Z</time>
      </trkpt>
      <trkpt lat="44.56619" lon="5.23149">
        <ele>1236.39</ele>
        <time>2025-03-02T10:41:05Z</time>
      </trkpt>
      <trkpt lat="44.56627" lon="5.23141">
        <ele>1238.32</ele>
        <time>2025-03-02T10:41:21Z</time>
      </trkpt>
      <trkpt lat="44.56633" lon="5.23141">
        <ele>1240.24</ele>
        <time>2025-03-02T10:41:35Z</time>
      </trkpt>
      <trkpt lat="44.56642" lon="5.23142">
        <ele>1241.2</ele>
        <time>2025-03-02T10:41:48Z</time>
      </trkpt>
      <trkpt lat="44.56655" lon="5.23144">
        <ele>1241.2</ele>
        <time>2025-03-02T10:42:04Z</time>
      </trkpt>
      <trkpt lat="44.56663" lon="5.23148">
        <ele>1240.72</ele>
        <time>2025-03-02T10:44:49Z</time>
      </trkpt>
      <trkpt lat="44.56673" lon="5.23146">
        <ele>1242.16</ele>
        <time>2025-03-02T10:45:06Z</time>
      </trkpt>
      <trkpt lat="44.56683" lon="5.23141">
        <ele>1244.56</ele>
        <time>2025-03-02T10:45:21Z</time>
      </trkpt>
      <trkpt lat="44.56691" lon="5.23133">
        <ele>1246.49</ele>
        <time>2025-03-02T10:45:36Z</time>
      </trkpt>
      <trkpt lat="44.56697" lon="5.23125">
        <ele>1249.85</ele>
        <time>2025-03-02T10:45:52Z</time>
      </trkpt>
      <trkpt lat="44.56704" lon="5.23115">
        <ele>1253.22</ele>
        <time>2025-03-02T10:46:09Z</time>
      </trkpt>
      <trkpt lat="44.56713" lon="5.23106">
        <ele>1255.62</ele>
        <time>2025-03-02T10:46:25Z</time>
      </trkpt>
      <trkpt lat="44.56718" lon="5.23097">
        <ele>1258.5</ele>
        <time>2025-03-02T10:46:40Z</time>
      </trkpt>
      <trkpt lat="44.56726" lon="5.23087">
        <ele>1261.39</ele>
        <time>2025-03-02T10:46:58Z</time>
      </trkpt>
      <trkpt lat="44.5673" lon="5.23081">
        <ele>1264.27</ele>
        <time>2025-03-02T10:47:12Z</time>
      </trkpt>
      <trkpt lat="44.56735" lon="5.23072">
        <ele>1267.16</ele>
        <time>2025-03-02T10:47:29Z</time>
      </trkpt>
      <trkpt lat="44.56743" lon="5.23064">
        <ele>1269.56</ele>
        <time>2025-03-02T10:47:45Z</time>
      </trkpt>
      <trkpt lat="44.5675" lon="5.23057">
        <ele>1271.96</ele>
        <time>2025-03-02T10:47:59Z</time>
      </trkpt>
      <trkpt lat="44.56756" lon="5.23047">
        <ele>1274.85</ele>
        <time>2025-03-02T10:48:15Z</time>
      </trkpt>
      <trkpt lat="44.56764" lon="5.23041">
        <ele>1277.25</ele>
        <time>2025-03-02T10:48:31Z</time>
      </trkpt>
      <trkpt lat="44.56772" lon="5.23033">
        <ele>1280.13</ele>
        <time>2025-03-02T10:48:48Z</time>
      </trkpt>
      <trkpt lat="44.56778" lon="5.23027">
        <ele>1282.54</ele>
        <time>2025-03-02T10:49:05Z</time>
      </trkpt>
      <trkpt lat="44.56789" lon="5.23018">
        <ele>1284.94</ele>
        <time>2025-03-02T10:49:22Z</time>
      </trkpt>
      <trkpt lat="44.56798" lon="5.23013">
        <ele>1287.34</ele>
        <time>2025-03-02T10:49:36Z</time>
      </trkpt>
      <trkpt lat="44.56806" lon="5.23009">
        <ele>1289.27</ele>
        <time>2025-03-02T10:49:52Z</time>
      </trkpt>
      <trkpt lat="44.56814" lon="5.23003">
        <ele>1291.19</ele>
        <time>2025-03-02T10:50:08Z</time>
      </trkpt>
      <trkpt lat="44.56822" lon="5.22997">
        <ele>1293.59</ele>
        <time>2025-03-02T10:50:23Z</time>
      </trkpt>
      <trkpt lat="44.56836" lon="5.22989">
        <ele>1295.99</ele>
        <time>2025-03-02T10:50:40Z</time>
      </trkpt>
      <trkpt lat="44.56848" lon="5.22979">
        <ele>1297.44</ele>
        <time>2025-03-02T10:50:55Z</time>
      </trkpt>
      <trkpt lat="44.56858" lon="5.22969">
        <ele>1299.84</ele>
        <time>2025-03-02T10:51:11Z</time>
      </trkpt>
      <trkpt lat="44.56869" lon="5.22965">
        <ele>1301.76</ele>
        <time>2025-03-02T10:51:28Z</time>
      </trkpt>
      <trkpt lat="44.56881" lon="5.22963">
        <ele>1303.2</ele>
        <time>2025-03-02T10:51:44Z</time>
      </trkpt>
      <trkpt lat="44.5689" lon="5.22958">
        <ele>1305.61</ele>
        <time>2025-03-02T10:51:59Z</time>
      </trkpt>
      <trkpt lat="44.56901" lon="5.22956">
        <ele>1308.49</ele>
        <time>2025-03-02T10:52:14Z</time>
      </trkpt>
      <trkpt lat="44.5691" lon="5.22956">
        <ele>1311.38</ele>
        <time>2025-03-02T10:52:31Z</time>
      </trkpt>
      <trkpt lat="44.56917" lon="5.22952">
        <ele>1314.74</ele>
        <time>2025-03-02T10:52:48Z</time>
      </trkpt>
      <trkpt lat="44.56921" lon="5.22952">
        <ele>1316.66</ele>
        <time>2025-03-02T10:53:02Z</time>
      </trkpt>
      <trkpt lat="44.56927" lon="5.22948">
        <ele>1321.47</ele>
        <time>2025-03-02T10:53:33Z</time>
      </trkpt>
      <trkpt lat="44.56935" lon="5.2295">
        <ele>1324.83</ele>
        <time>2025-03-02T10:53:48Z</time>
      </trkpt>
      <trkpt lat="44.56941" lon="5.22953">
        <ele>1327.24</ele>
        <time>2025-03-02T10:54:04Z</time>
      </trkpt>
      <trkpt lat="44.56952" lon="5.22957">
        <ele>1329.64</ele>
        <time>2025-03-02T10:54:22Z</time>
      </trkpt>
      <trkpt lat="44.56961" lon="5.22959">
        <ele>1332.04</ele>
        <time>2025-03-02T10:54:37Z</time>
      </trkpt>
      <trkpt lat="44.56972" lon="5.22956">
        <ele>1334.45</ele>
        <time>2025-03-02T10:54:53Z</time>
      </trkpt>
      <trkpt lat="44.56981" lon="5.22956">
        <ele>1336.85</ele>
        <time>2025-03-02T10:55:08Z</time>
      </trkpt>
      <trkpt lat="44.56991" lon="5.22954">
        <ele>1338.77</ele>
        <time>2025-03-02T10:55:23Z</time>
      </trkpt>
      <trkpt lat="44.57001" lon="5.22952">
        <ele>1341.18</ele>
        <time>2025-03-02T10:55:38Z</time>
      </trkpt>
      <trkpt lat="44.57011" lon="5.22955">
        <ele>1342.62</ele>
        <time>2025-03-02T10:55:51Z</time>
      </trkpt>
      <trkpt lat="44.57019" lon="5.2295">
        <ele>1345.5</ele>
        <time>2025-03-02T10:56:06Z</time>
      </trkpt>
      <trkpt lat="44.57019" lon="5.22946">
        <ele>1346.46</ele>
        <time>2025-03-02T10:56:18Z</time>
      </trkpt>
      <trkpt lat="44.57028" lon="5.22942">
        <ele>1349.83</ele>
        <time>2025-03-02T10:56:32Z</time>
      </trkpt>
      <trkpt lat="44.57038" lon="5.22941">
        <ele>1351.75</ele>
        <time>2025-03-02T10:56:47Z</time>
      </trkpt>
      <trkpt lat="44.57046" lon="5.22938">
        <ele>1354.63</ele>
        <time>2025-03-02T10:57:04Z</time>
      </trkpt>
      <trkpt lat="44.57054" lon="5.22939">
        <ele>1357.04</ele>
        <time>2025-03-02T10:57:19Z</time>
      </trkpt>
      <trkpt lat="44.57061" lon="5.22934">
        <ele>1359.92</ele>
        <time>2025-03-02T10:57:34Z</time>
      </trkpt>
      <trkpt lat="44.57071" lon="5.22929">
        <ele>1362.33</ele>
        <time>2025-03-02T10:57:53Z</time>
      </trkpt>
      <trkpt lat="44.57077" lon="5.22926">
        <ele>1364.73</ele>
        <time>2025-03-02T10:58:06Z</time>
      </trkpt>
      <trkpt lat="44.57088" lon="5.22929">
        <ele>1366.17</ele>
        <time>2025-03-02T10:58:22Z</time>
      </trkpt>
      <trkpt lat="44.57097" lon="5.22928">
        <ele>1369.05</ele>
        <time>2025-03-02T10:58:37Z</time>
      </trkpt>
      <trkpt lat="44.57106" lon="5.22923">
        <ele>1371.46</ele>
        <time>2025-03-02T10:58:52Z</time>
      </trkpt>
      <trkpt lat="44.57114" lon="5.22927">
        <ele>1372.9</ele>
        <time>2025-03-02T10:59:07Z</time>
      </trkpt>
      <trkpt lat="44.57127" lon="5.2293">
        <ele>1373.38</ele>
        <time>2025-03-02T10:59:21Z</time>
      </trkpt>
      <trkpt lat="44.57133" lon="5.22932">
        <ele>1374.34</ele>
        <time>2025-03-02T10:59:39Z</time>
      </trkpt>
      <trkpt lat="44.57134" lon="5.22932">
        <ele>1376.26</ele>
        <time>2025-03-02T11:06:33Z</time>
      </trkpt>
      <trkpt lat="44.57142" lon="5.2293">
        <ele>1376.26</ele>
        <time>2025-03-02T11:06:49Z</time>
      </trkpt>
      <trkpt lat="44.57158" lon="5.22932">
        <ele>1376.75</ele>
        <time>2025-03-02T11:07:04Z</time>
      </trkpt>
      <trkpt lat="44.57169" lon="5.22933">
        <ele>1377.23</ele>
        <time>2025-03-02T11:07:18Z</time>
      </trkpt>
      <trkpt lat="44.57182" lon="5.22936">
        <ele>1377.23</ele>
        <time>2025-03-02T11:07:33Z</time>
      </trkpt>
      <trkpt lat="44.57197" lon="5.22939">
        <ele>1379.15</ele>
        <time>2025-03-02T11:07:48Z</time>
      </trkpt>
      <trkpt lat="44.57215" lon="5.22943">
        <ele>1379.63</ele>
        <time>2025-03-02T11:08:05Z</time>
      </trkpt>
      <trkpt lat="44.57231" lon="5.22944">
        <ele>1380.59</ele>
        <time>2025-03-02T11:08:20Z</time>
      </trkpt>
      <trkpt lat="44.57246" lon="5.22944">
        <ele>1382.03</ele>
        <time>2025-03-02T11:08:35Z</time>
      </trkpt>
      <trkpt lat="44.57263" lon="5.22948">
        <ele>1382.51</ele>
        <time>2025-03-02T11:08:51Z</time>
      </trkpt>
      <trkpt lat="44.5728" lon="5.22956">
        <ele>1382.51</ele>
        <time>2025-03-02T11:09:06Z</time>
      </trkpt>
      <trkpt lat="44.57296" lon="5.22959">
        <ele>1383.47</ele>
        <time>2025-03-02T11:09:21Z</time>
      </trkpt>
      <trkpt lat="44.57308" lon="5.22961">
        <ele>1384.44</ele>
        <time>2025-03-02T11:09:33Z</time>
      </trkpt>
      <trkpt lat="44.57321" lon="5.22964">
        <ele>1385.88</ele>
        <time>2025-03-02T11:09:46Z</time>
      </trkpt>
      <trkpt lat="44.57337" lon="5.22967">
        <ele>1386.84</ele>
        <time>2025-03-02T11:10:00Z</time>
      </trkpt>
      <trkpt lat="44.57353" lon="5.22968">
        <ele>1388.28</ele>
        <time>2025-03-02T11:10:16Z</time>
      </trkpt>
      <trkpt lat="44.57368" lon="5.2297">
        <ele>1390.2</ele>
        <time>2025-03-02T11:10:32Z</time>
      </trkpt>
      <trkpt lat="44.57383" lon="5.22977">
        <ele>1391.17</ele>
        <time>2025-03-02T11:10:46Z</time>
      </trkpt>
      <trkpt lat="44.57391" lon="5.2298">
        <ele>1391.65</ele>
        <time>2025-03-02T11:11:02Z</time>
      </trkpt>
      <trkpt lat="44.57405" lon="5.22986">
        <ele>1392.61</ele>
        <time>2025-03-02T11:11:17Z</time>
      </trkpt>
      <trkpt lat="44.57418" lon="5.22991">
        <ele>1394.53</ele>
        <time>2025-03-02T11:11:31Z</time>
      </trkpt>
      <trkpt lat="44.57429" lon="5.22997">
        <ele>1395.97</ele>
        <time>2025-03-02T11:11:44Z</time>
      </trkpt>
      <trkpt lat="44.57436" lon="5.23003">
        <ele>1397.89</ele>
        <time>2025-03-02T11:11:54Z</time>
      </trkpt>
      <trkpt lat="44.57437" lon="5.23006">
        <ele>1398.86</ele>
        <time>2025-03-02T11:11:57Z</time>
      </trkpt>
      <trkpt lat="44.57447" lon="5.2302">
        <ele>1401.26</ele>
        <time>2025-03-02T11:12:12Z</time>
      </trkpt>
      <trkpt lat="44.57454" lon="5.23029">
        <ele>1404.62</ele>
        <time>2025-03-02T11:12:27Z</time>
      </trkpt>
      <trkpt lat="44.57458" lon="5.23032">
        <ele>1405.58</ele>
        <time>2025-03-02T11:12:34Z</time>
      </trkpt>
      <trkpt lat="44.57473" lon="5.23035">
        <ele>1407.03</ele>
        <time>2025-03-02T11:12:50Z</time>
      </trkpt>
      <trkpt lat="44.57484" lon="5.23043">
        <ele>1408.47</ele>
        <time>2025-03-02T11:13:05Z</time>
      </trkpt>
      <trkpt lat="44.57494" lon="5.23052">
        <ele>1410.39</ele>
        <time>2025-03-02T11:13:20Z</time>
      </trkpt>
      <trkpt lat="44.57505" lon="5.23058">
        <ele>1411.83</ele>
        <time>2025-03-02T11:13:37Z</time>
      </trkpt>
      <trkpt lat="44.57514" lon="5.23064">
        <ele>1414.24</ele>
        <time>2025-03-02T11:13:52Z</time>
      </trkpt>
      <trkpt lat="44.5752" lon="5.23069">
        <ele>1416.16</ele>
        <time>2025-03-02T11:14:08Z</time>
      </trkpt>
      <trkpt lat="44.57529" lon="5.23078">
        <ele>1419.04</ele>
        <time>2025-03-02T11:14:24Z</time>
      </trkpt>
      <trkpt lat="44.57539" lon="5.23085">
        <ele>1421.45</ele>
        <time>2025-03-02T11:14:38Z</time>
      </trkpt>
      <trkpt lat="44.57543" lon="5.2309">
        <ele>1423.37</ele>
        <time>2025-03-02T11:14:52Z</time>
      </trkpt>
      <trkpt lat="44.57549" lon="5.23098">
        <ele>1424.81</ele>
        <time>2025-03-02T11:15:06Z</time>
      </trkpt>
      <trkpt lat="44.57556" lon="5.23107">
        <ele>1427.21</ele>
        <time>2025-03-02T11:15:22Z</time>
      </trkpt>
      <trkpt lat="44.57563" lon="5.23114">
        <ele>1429.14</ele>
        <time>2025-03-02T11:15:37Z</time>
      </trkpt>
      <trkpt lat="44.57572" lon="5.23123">
        <ele>1432.5</ele>
        <time>2025-03-02T11:15:54Z</time>
      </trkpt>
      <trkpt lat="44.57581" lon="5.2313">
        <ele>1434.91</ele>
        <time>2025-03-02T11:16:12Z</time>
      </trkpt>
      <trkpt lat="44.57586" lon="5.23139">
        <ele>1437.31</ele>
        <time>2025-03-02T11:16:26Z</time>
      </trkpt>
      <trkpt lat="44.57591" lon="5.23144">
        <ele>1439.71</ele>
        <time>2025-03-02T11:16:40Z</time>
      </trkpt>
      <trkpt lat="44.57597" lon="5.23148">
        <ele>1441.63</ele>
        <time>2025-03-02T11:16:54Z</time>
      </trkpt>
      <trkpt lat="44.57605" lon="5.2315">
        <ele>1444.04</ele>
        <time>2025-03-02T11:17:10Z</time>
      </trkpt>
      <trkpt lat="44.57612" lon="5.2315">
        <ele>1446.44</ele>
        <time>2025-03-02T11:17:24Z</time>
      </trkpt>
      <trkpt lat="44.57616" lon="5.23153">
        <ele>1448.84</ele>
        <time>2025-03-02T11:17:39Z</time>
      </trkpt>
      <trkpt lat="44.5762" lon="5.23165">
        <ele>1452.21</ele>
        <time>2025-03-02T11:17:58Z</time>
      </trkpt>
      <trkpt lat="44.57627" lon="5.23169">
        <ele>1455.09</ele>
        <time>2025-03-02T11:18:12Z</time>
      </trkpt>
      <trkpt lat="44.5763" lon="5.23172">
        <ele>1457.5</ele>
        <time>2025-03-02T11:18:28Z</time>
      </trkpt>
      <trkpt lat="44.57636" lon="5.23173">
        <ele>1458.94</ele>
        <time>2025-03-02T11:18:42Z</time>
      </trkpt>
      <trkpt lat="44.57643" lon="5.23176">
        <ele>1461.82</ele>
        <time>2025-03-02T11:18:57Z</time>
      </trkpt>
      <trkpt lat="44.57651" lon="5.23184">
        <ele>1463.26</ele>
        <time>2025-03-02T11:19:11Z</time>
      </trkpt>
      <trkpt lat="44.57659" lon="5.23191">
        <ele>1465.67</ele>
        <time>2025-03-02T11:19:27Z</time>
      </trkpt>
      <trkpt lat="44.57665" lon="5.23198">
        <ele>1469.03</ele>
        <time>2025-03-02T11:19:41Z</time>
      </trkpt>
      <trkpt lat="44.57672" lon="5.23201">
        <ele>1470.95</ele>
        <time>2025-03-02T11:19:56Z</time>
      </trkpt>
      <trkpt lat="44.57684" lon="5.23205">
        <ele>1472.88</ele>
        <time>2025-03-02T11:20:11Z</time>
      </trkpt>
      <trkpt lat="44.57695" lon="5.23207">
        <ele>1475.28</ele>
        <time>2025-03-02T11:20:25Z</time>
      </trkpt>
      <trkpt lat="44.57704" lon="5.23211">
        <ele>1477.68</ele>
        <time>2025-03-02T11:20:42Z</time>
      </trkpt>
      <trkpt lat="44.57707" lon="5.23212">
        <ele>1477.68</ele>
        <time>2025-03-02T11:24:31Z</time>
      </trkpt>
      <trkpt lat="44.57708" lon="5.23212">
        <ele>1477.68</ele>
        <time>2025-03-02T11:24:54Z</time>
      </trkpt>
      <trkpt lat="44.57709" lon="5.23213">
        <ele>1477.68</ele>
        <time>2025-03-02T11:25:22Z</time>
      </trkpt>
      <trkpt lat="44.57711" lon="5.2321">
        <ele>1481.05</ele>
        <time>2025-03-02T12:30:35Z</time>
      </trkpt>
      <trkpt lat="44.57719" lon="5.23213">
        <ele>1481.53</ele>
        <time>2025-03-02T12:30:48Z</time>
      </trkpt>
      <trkpt lat="44.57728" lon="5.23216">
        <ele>1483.93</ele>
        <time>2025-03-02T12:31:04Z</time>
      </trkpt>
      <trkpt lat="44.57736" lon="5.23213">
        <ele>1483.45</ele>
        <time>2025-03-02T12:31:17Z</time>
      </trkpt>
      <trkpt lat="44.57742" lon="5.23211">
        <ele>1483.45</ele>
        <time>2025-03-02T12:31:24Z</time>
      </trkpt>
      <trkpt lat="44.57754" lon="5.23208">
        <ele>1483.45</ele>
        <time>2025-03-02T12:31:40Z</time>
      </trkpt>
      <trkpt lat="44.57762" lon="5.23203">
        <ele>1483.93</ele>
        <time>2025-03-02T12:31:53Z</time>
      </trkpt>
      <trkpt lat="44.57773" lon="5.23199">
        <ele>1484.89</ele>
        <time>2025-03-02T12:32:08Z</time>
      </trkpt>
      <trkpt lat="44.57783" lon="5.23192">
        <ele>1485.85</ele>
        <time>2025-03-02T12:32:23Z</time>
      </trkpt>
      <trkpt lat="44.57791" lon="5.23194">
        <ele>1485.85</ele>
        <time>2025-03-02T12:32:35Z</time>
      </trkpt>
      <trkpt lat="44.57793" lon="5.23193">
        <ele>1486.34</ele>
        <time>2025-03-02T12:32:49Z</time>
      </trkpt>
      <trkpt lat="44.57797" lon="5.23184">
        <ele>1486.34</ele>
        <time>2025-03-02T12:33:07Z</time>
      </trkpt>
      <trkpt lat="44.57804" lon="5.23181">
        <ele>1486.34</ele>
        <time>2025-03-02T12:33:20Z</time>
      </trkpt>
      <trkpt lat="44.57815" lon="5.23178">
        <ele>1486.34</ele>
        <time>2025-03-02T12:33:31Z</time>
      </trkpt>
      <trkpt lat="44.57827" lon="5.23172">
        <ele>1486.34</ele>
        <time>2025-03-02T12:33:45Z</time>
      </trkpt>
      <trkpt lat="44.5783" lon="5.2317">
        <ele>1485.37</ele>
        <time>2025-03-02T12:33:48Z</time>
      </trkpt>
      <trkpt lat="44.57842" lon="5.23166">
        <ele>1484.41</ele>
        <time>2025-03-02T12:34:02Z</time>
      </trkpt>
      <trkpt lat="44.57853" lon="5.23158">
        <ele>1482.97</ele>
        <time>2025-03-02T12:34:17Z</time>
      </trkpt>
      <trkpt lat="44.57869" lon="5.23149">
        <ele>1481.53</ele>
        <time>2025-03-02T12:34:34Z</time>
      </trkpt>
      <trkpt lat="44.57877" lon="5.23146">
        <ele>1480.57</ele>
        <time>2025-03-02T12:34:43Z</time>
      </trkpt>
      <trkpt lat="44.57895" lon="5.23142">
        <ele>1480.09</ele>
        <time>2025-03-02T12:34:59Z</time>
      </trkpt>
      <trkpt lat="44.57912" lon="5.23136">
        <ele>1477.68</ele>
        <time>2025-03-02T12:35:16Z</time>
      </trkpt>
      <trkpt lat="44.57926" lon="5.23133">
        <ele>1475.28</ele>
        <time>2025-03-02T12:35:32Z</time>
      </trkpt>
      <trkpt lat="44.57938" lon="5.23125">
        <ele>1472.88</ele>
        <time>2025-03-02T12:35:49Z</time>
      </trkpt>
      <trkpt lat="44.57953" lon="5.23122">
        <ele>1470.47</ele>
        <time>2025-03-02T12:36:06Z</time>
      </trkpt>
      <trkpt lat="44.57968" lon="5.2312">
        <ele>1467.11</ele>
        <time>2025-03-02T12:36:22Z</time>
      </trkpt>
      <trkpt lat="44.57979" lon="5.23117">
        <ele>1464.23</ele>
        <time>2025-03-02T12:36:36Z</time>
      </trkpt>
      <trkpt lat="44.57983" lon="5.23117">
        <ele>1463.26</ele>
        <time>2025-03-02T12:36:41Z</time>
      </trkpt>
      <trkpt lat="44.57996" lon="5.23117">
        <ele>1459.42</ele>
        <time>2025-03-02T12:36:56Z</time>
      </trkpt>
      <trkpt lat="44.58002" lon="5.23114">
        <ele>1457.98</ele>
        <time>2025-03-02T12:37:03Z</time>
      </trkpt>
      <trkpt lat="44.58017" lon="5.23116">
        <ele>1455.57</ele>
        <time>2025-03-02T12:37:19Z</time>
      </trkpt>
      <trkpt lat="44.58022" lon="5.23113">
        <ele>1454.61</ele>
        <time>2025-03-02T12:37:31Z</time>
      </trkpt>
      <trkpt lat="44.58024" lon="5.23112">
        <ele>1454.13</ele>
        <time>2025-03-02T12:37:52Z</time>
      </trkpt>
      <trkpt lat="44.58026" lon="5.23109">
        <ele>1453.17</ele>
        <time>2025-03-02T12:38:06Z</time>
      </trkpt>
      <trkpt lat="44.58033" lon="5.23106">
        <ele>1450.77</ele>
        <time>2025-03-02T12:38:19Z</time>
      </trkpt>
      <trkpt lat="44.58035" lon="5.23105">
        <ele>1450.29</ele>
        <time>2025-03-02T12:38:21Z</time>
      </trkpt>
      <trkpt lat="44.58048" lon="5.23103">
        <ele>1447.88</ele>
        <time>2025-03-02T12:38:36Z</time>
      </trkpt>
      <trkpt lat="44.5805" lon="5.23103">
        <ele>1447.88</ele>
        <time>2025-03-02T12:38:39Z</time>
      </trkpt>
      <trkpt lat="44.58064" lon="5.23099">
        <ele>1444.52</ele>
        <time>2025-03-02T12:38:55Z</time>
      </trkpt>
      <trkpt lat="44.58076" lon="5.23095">
        <ele>1442.11</ele>
        <time>2025-03-02T12:39:10Z</time>
      </trkpt>
      <trkpt lat="44.58091" lon="5.23087">
        <ele>1440.19</ele>
        <time>2025-03-02T12:39:25Z</time>
      </trkpt>
      <trkpt lat="44.58102" lon="5.2308">
        <ele>1438.75</ele>
        <time>2025-03-02T12:39:39Z</time>
      </trkpt>
      <trkpt lat="44.58107" lon="5.23077">
        <ele>1437.79</ele>
        <time>2025-03-02T12:39:51Z</time>
      </trkpt>
      <trkpt lat="44.58113" lon="5.23072">
        <ele>1436.83</ele>
        <time>2025-03-02T12:40:01Z</time>
      </trkpt>
      <trkpt lat="44.58115" lon="5.23071">
        <ele>1436.35</ele>
        <time>2025-03-02T12:40:03Z</time>
      </trkpt>
      <trkpt lat="44.58132" lon="5.23057">
        <ele>1433.94</ele>
        <time>2025-03-02T12:40:21Z</time>
      </trkpt>
      <trkpt lat="44.58134" lon="5.23056">
        <ele>1433.94</ele>
        <time>2025-03-02T12:40:23Z</time>
      </trkpt>
      <trkpt lat="44.5815" lon="5.2305">
        <ele>1433.46</ele>
        <time>2025-03-02T12:40:37Z</time>
      </trkpt>
      <trkpt lat="44.58162" lon="5.23043">
        <ele>1433.46</ele>
        <time>2025-03-02T12:40:49Z</time>
      </trkpt>
      <trkpt lat="44.58181" lon="5.2304">
        <ele>1433.46</ele>
        <time>2025-03-02T12:41:06Z</time>
      </trkpt>
      <trkpt lat="44.58202" lon="5.23036">
        <ele>1431.54</ele>
        <time>2025-03-02T12:41:24Z</time>
      </trkpt>
      <trkpt lat="44.58208" lon="5.23035">
        <ele>1431.06</ele>
        <time>2025-03-02T12:41:29Z</time>
      </trkpt>
      <trkpt lat="44.58215" lon="5.23031">
        <ele>1430.58</ele>
        <time>2025-03-02T12:41:35Z</time>
      </trkpt>
      <trkpt lat="44.58233" lon="5.2302">
        <ele>1430.58</ele>
        <time>2025-03-02T12:41:52Z</time>
      </trkpt>
      <trkpt lat="44.58248" lon="5.2301">
        <ele>1430.58</ele>
        <time>2025-03-02T12:42:06Z</time>
      </trkpt>
      <trkpt lat="44.5825" lon="5.23009">
        <ele>1432.02</ele>
        <time>2025-03-02T12:42:08Z</time>
      </trkpt>
      <trkpt lat="44.58262" lon="5.22997">
        <ele>1432.98</ele>
        <time>2025-03-02T12:42:23Z</time>
      </trkpt>
      <trkpt lat="44.58273" lon="5.22987">
        <ele>1432.5</ele>
        <time>2025-03-02T12:42:35Z</time>
      </trkpt>
      <trkpt lat="44.58278" lon="5.2298">
        <ele>1432.5</ele>
        <time>2025-03-02T12:42:42Z</time>
      </trkpt>
      <trkpt lat="44.58293" lon="5.2298">
        <ele>1432.5</ele>
        <time>2025-03-02T12:42:57Z</time>
      </trkpt>
      <trkpt lat="44.58302" lon="5.2298">
        <ele>1431.06</ele>
        <time>2025-03-02T12:43:06Z</time>
      </trkpt>
      <trkpt lat="44.58314" lon="5.22981">
        <ele>1430.1</ele>
        <time>2025-03-02T12:43:21Z</time>
      </trkpt>
      <trkpt lat="44.58323" lon="5.22981">
        <ele>1428.66</ele>
        <time>2025-03-02T12:43:34Z</time>
      </trkpt>
      <trkpt lat="44.58335" lon="5.22982">
        <ele>1426.25</ele>
        <time>2025-03-02T12:43:49Z</time>
      </trkpt>
      <trkpt lat="44.58345" lon="5.22983">
        <ele>1423.85</ele>
        <time>2025-03-02T12:44:02Z</time>
      </trkpt>
      <trkpt lat="44.58365" lon="5.22984">
        <ele>1420.97</ele>
        <time>2025-03-02T12:44:21Z</time>
      </trkpt>
      <trkpt lat="44.58381" lon="5.22987">
        <ele>1417.6</ele>
        <time>2025-03-02T12:44:36Z</time>
      </trkpt>
      <trkpt lat="44.58382" lon="5.22987">
        <ele>1417.6</ele>
        <time>2025-03-02T12:44:37Z</time>
      </trkpt>
      <trkpt lat="44.58395" lon="5.2299">
        <ele>1415.2</ele>
        <time>2025-03-02T12:44:50Z</time>
      </trkpt>
      <trkpt lat="44.58412" lon="5.22994">
        <ele>1411.83</ele>
        <time>2025-03-02T12:45:08Z</time>
      </trkpt>
      <trkpt lat="44.58428" lon="5.22998">
        <ele>1408.47</ele>
        <time>2025-03-02T12:45:25Z</time>
      </trkpt>
      <trkpt lat="44.5844" lon="5.23002">
        <ele>1405.58</ele>
        <time>2025-03-02T12:45:41Z</time>
      </trkpt>
      <trkpt lat="44.58451" lon="5.23008">
        <ele>1402.22</ele>
        <time>2025-03-02T12:45:55Z</time>
      </trkpt>
      <trkpt lat="44.58462" lon="5.23011">
        <ele>1398.86</ele>
        <time>2025-03-02T12:46:07Z</time>
      </trkpt>
      <trkpt lat="44.58474" lon="5.23016">
        <ele>1395.49</ele>
        <time>2025-03-02T12:46:20Z</time>
      </trkpt>
      <trkpt lat="44.58482" lon="5.23023">
        <ele>1392.13</ele>
        <time>2025-03-02T12:46:30Z</time>
      </trkpt>
      <trkpt lat="44.5849" lon="5.23037">
        <ele>1388.76</ele>
        <time>2025-03-02T12:46:42Z</time>
      </trkpt>
      <trkpt lat="44.585" lon="5.23048">
        <ele>1384.92</ele>
        <time>2025-03-02T12:46:54Z</time>
      </trkpt>
      <trkpt lat="44.58508" lon="5.23056">
        <ele>1381.55</ele>
        <time>2025-03-02T12:47:05Z</time>
      </trkpt>
      <trkpt lat="44.58515" lon="5.23061">
        <ele>1378.67</ele>
        <time>2025-03-02T12:47:16Z</time>
      </trkpt>
      <trkpt lat="44.58518" lon="5.23066">
        <ele>1376.26</ele>
        <time>2025-03-02T12:47:24Z</time>
      </trkpt>
      <trkpt lat="44.58524" lon="5.23076">
        <ele>1372.42</ele>
        <time>2025-03-02T12:47:34Z</time>
      </trkpt>
      <trkpt lat="44.58528" lon="5.23087">
        <ele>1369.05</ele>
        <time>2025-03-02T12:47:45Z</time>
      </trkpt>
      <trkpt lat="44.58533" lon="5.23102">
        <ele>1365.69</ele>
        <time>2025-03-02T12:47:56Z</time>
      </trkpt>
      <trkpt lat="44.58535" lon="5.2311">
        <ele>1363.77</ele>
        <time>2025-03-02T12:48:03Z</time>
      </trkpt>
      <trkpt lat="44.58539" lon="5.23121">
        <ele>1359.92</ele>
        <time>2025-03-02T12:48:15Z</time>
      </trkpt>
      <trkpt lat="44.58541" lon="5.23134">
        <ele>1356.08</ele>
        <time>2025-03-02T12:48:27Z</time>
      </trkpt>
      <trkpt lat="44.58545" lon="5.23137">
        <ele>1355.6</ele>
        <time>2025-03-02T12:48:31Z</time>
      </trkpt>
      <trkpt lat="44.5855" lon="5.23142">
        <ele>1354.15</ele>
        <time>2025-03-02T12:48:37Z</time>
      </trkpt>
      <trkpt lat="44.58564" lon="5.23151">
        <ele>1350.79</ele>
        <time>2025-03-02T12:48:52Z</time>
      </trkpt>
      <trkpt lat="44.58576" lon="5.23154">
        <ele>1348.39</ele>
        <time>2025-03-02T12:49:06Z</time>
      </trkpt>
      <trkpt lat="44.58582" lon="5.23154">
        <ele>1346.46</ele>
        <time>2025-03-02T12:49:21Z</time>
      </trkpt>
      <trkpt lat="44.58593" lon="5.23162">
        <ele>1344.06</ele>
        <time>2025-03-02T12:49:36Z</time>
      </trkpt>
      <trkpt lat="44.58596" lon="5.23164">
        <ele>1343.58</ele>
        <time>2025-03-02T12:49:39Z</time>
      </trkpt>
      <trkpt lat="44.58608" lon="5.23169">
        <ele>1341.18</ele>
        <time>2025-03-02T12:49:54Z</time>
      </trkpt>
      <trkpt lat="44.58615" lon="5.23169">
        <ele>1339.25</ele>
        <time>2025-03-02T12:50:04Z</time>
      </trkpt>
      <trkpt lat="44.58629" lon="5.23169">
        <ele>1336.85</ele>
        <time>2025-03-02T12:50:19Z</time>
      </trkpt>
      <trkpt lat="44.58638" lon="5.23168">
        <ele>1333.49</ele>
        <time>2025-03-02T12:50:32Z</time>
      </trkpt>
      <trkpt lat="44.58644" lon="5.23167">
        <ele>1332.52</ele>
        <time>2025-03-02T12:50:45Z</time>
      </trkpt>
      <trkpt lat="44.58651" lon="5.23166">
        <ele>1329.16</ele>
        <time>2025-03-02T12:50:56Z</time>
      </trkpt>
      <trkpt lat="44.58657" lon="5.23165">
        <ele>1326.28</ele>
        <time>2025-03-02T12:51:08Z</time>
      </trkpt>
      <trkpt lat="44.58664" lon="5.2317">
        <ele>1324.35</ele>
        <time>2025-03-02T12:51:23Z</time>
      </trkpt>
      <trkpt lat="44.58669" lon="5.23175">
        <ele>1320.99</ele>
        <time>2025-03-02T12:51:35Z</time>
      </trkpt>
      <trkpt lat="44.58677" lon="5.23177">
        <ele>1317.62</ele>
        <time>2025-03-02T12:51:46Z</time>
      </trkpt>
      <trkpt lat="44.58679" lon="5.23179">
        <ele>1316.66</ele>
        <time>2025-03-02T12:51:50Z</time>
      </trkpt>
      <trkpt lat="44.58688" lon="5.23181">
        <ele>1313.78</ele>
        <time>2025-03-02T12:51:59Z</time>
      </trkpt>
      <trkpt lat="44.58696" lon="5.23186">
        <ele>1310.41</ele>
        <time>2025-03-02T12:52:08Z</time>
      </trkpt>
      <trkpt lat="44.58704" lon="5.23188">
        <ele>1307.05</ele>
        <time>2025-03-02T12:52:21Z</time>
      </trkpt>
      <trkpt lat="44.58711" lon="5.23186">
        <ele>1304.17</ele>
        <time>2025-03-02T12:52:33Z</time>
      </trkpt>
      <trkpt lat="44.58717" lon="5.23186">
        <ele>1301.28</ele>
        <time>2025-03-02T12:52:46Z</time>
      </trkpt>
      <trkpt lat="44.58723" lon="5.23188">
        <ele>1297.92</ele>
        <time>2025-03-02T12:52:54Z</time>
      </trkpt>
      <trkpt lat="44.58725" lon="5.23194">
        <ele>1295.03</ele>
        <time>2025-03-02T12:53:05Z</time>
      </trkpt>
      <trkpt lat="44.58727" lon="5.23205">
        <ele>1291.67</ele>
        <time>2025-03-02T12:53:16Z</time>
      </trkpt>
      <trkpt lat="44.5873" lon="5.23218">
        <ele>1288.78</ele>
        <time>2025-03-02T12:53:30Z</time>
      </trkpt>
      <trkpt lat="44.5873" lon="5.23219">
        <ele>1288.3</ele>
        <time>2025-03-02T12:53:31Z</time>
      </trkpt>
      <trkpt lat="44.58731" lon="5.23233">
        <ele>1286.86</ele>
        <time>2025-03-02T12:53:44Z</time>
      </trkpt>
      <trkpt lat="44.58732" lon="5.23247">
        <ele>1284.94</ele>
        <time>2025-03-02T12:53:54Z</time>
      </trkpt>
      <trkpt lat="44.58736" lon="5.23273">
        <ele>1282.54</ele>
        <time>2025-03-02T12:54:10Z</time>
      </trkpt>
      <trkpt lat="44.5874" lon="5.23292">
        <ele>1279.65</ele>
        <time>2025-03-02T12:54:24Z</time>
      </trkpt>
      <trkpt lat="44.5874" lon="5.23295">
        <ele>1278.69</ele>
        <time>2025-03-02T12:54:28Z</time>
      </trkpt>
      <trkpt lat="44.58739" lon="5.23308">
        <ele>1275.33</ele>
        <time>2025-03-02T12:54:41Z</time>
      </trkpt>
      <trkpt lat="44.58738" lon="5.23327">
        <ele>1274.36</ele>
        <time>2025-03-02T12:54:55Z</time>
      </trkpt>
      <trkpt lat="44.58736" lon="5.23344">
        <ele>1273.4</ele>
        <time>2025-03-02T12:55:09Z</time>
      </trkpt>
      <trkpt lat="44.58735" lon="5.23363">
        <ele>1271</ele>
        <time>2025-03-02T12:55:23Z</time>
      </trkpt>
      <trkpt lat="44.58732" lon="5.23375">
        <ele>1267.64</ele>
        <time>2025-03-02T12:55:34Z</time>
      </trkpt>
      <trkpt lat="44.58724" lon="5.23392">
        <ele>1264.75</ele>
        <time>2025-03-02T12:55:49Z</time>
      </trkpt>
      <trkpt lat="44.58718" lon="5.23402">
        <ele>1261.39</ele>
        <time>2025-03-02T12:56:00Z</time>
      </trkpt>
      <trkpt lat="44.58709" lon="5.23415">
        <ele>1258.98</ele>
        <time>2025-03-02T12:56:13Z</time>
      </trkpt>
      <trkpt lat="44.58705" lon="5.23422">
        <ele>1255.62</ele>
        <time>2025-03-02T12:56:28Z</time>
      </trkpt>
      <trkpt lat="44.58701" lon="5.23431">
        <ele>1253.22</ele>
        <time>2025-03-02T12:56:43Z</time>
      </trkpt>
      <trkpt lat="44.58699" lon="5.23445">
        <ele>1249.85</ele>
        <time>2025-03-02T13:01:43Z</time>
      </trkpt>
      <trkpt lat="44.58703" lon="5.23453">
        <ele>1247.93</ele>
        <time>2025-03-02T13:01:58Z</time>
      </trkpt>
      <trkpt lat="44.58708" lon="5.23456">
        <ele>1245.04</ele>
        <time>2025-03-02T13:02:15Z</time>
      </trkpt>
      <trkpt lat="44.58714" lon="5.2346">
        <ele>1242.16</ele>
        <time>2025-03-02T13:02:30Z</time>
      </trkpt>
      <trkpt lat="44.58719" lon="5.23462">
        <ele>1238.8</ele>
        <time>2025-03-02T13:02:42Z</time>
      </trkpt>
      <trkpt lat="44.58725" lon="5.23462">
        <ele>1235.91</ele>
        <time>2025-03-02T13:02:57Z</time>
      </trkpt>
      <trkpt lat="44.58731" lon="5.23461">
        <ele>1234.47</ele>
        <time>2025-03-02T13:03:12Z</time>
      </trkpt>
      <trkpt lat="44.58738" lon="5.2346">
        <ele>1231.11</ele>
        <time>2025-03-02T13:03:28Z</time>
      </trkpt>
      <trkpt lat="44.58737" lon="5.23466">
        <ele>1228.7</ele>
        <time>2025-03-02T13:03:43Z</time>
      </trkpt>
      <trkpt lat="44.58736" lon="5.23476">
        <ele>1226.3</ele>
        <time>2025-03-02T13:03:57Z</time>
      </trkpt>
      <trkpt lat="44.58736" lon="5.23483">
        <ele>1224.38</ele>
        <time>2025-03-02T13:04:11Z</time>
      </trkpt>
      <trkpt lat="44.58743" lon="5.23486">
        <ele>1221.49</ele>
        <time>2025-03-02T13:04:22Z</time>
      </trkpt>
      <trkpt lat="44.58748" lon="5.23493">
        <ele>1218.13</ele>
        <time>2025-03-02T13:04:32Z</time>
      </trkpt>
      <trkpt lat="44.58753" lon="5.23499">
        <ele>1214.76</ele>
        <time>2025-03-02T13:04:44Z</time>
      </trkpt>
      <trkpt lat="44.58756" lon="5.23508">
        <ele>1211.4</ele>
        <time>2025-03-02T13:04:55Z</time>
      </trkpt>
      <trkpt lat="44.58761" lon="5.23515">
        <ele>1208.03</ele>
        <time>2025-03-02T13:05:04Z</time>
      </trkpt>
      <trkpt lat="44.58768" lon="5.23521">
        <ele>1204.67</ele>
        <time>2025-03-02T13:05:18Z</time>
      </trkpt>
      <trkpt lat="44.58776" lon="5.23531">
        <ele>1201.79</ele>
        <time>2025-03-02T13:05:31Z</time>
      </trkpt>
      <trkpt lat="44.58783" lon="5.23535">
        <ele>1199.86</ele>
        <time>2025-03-02T13:05:40Z</time>
      </trkpt>
      <trkpt lat="44.58786" lon="5.23539">
        <ele>1198.9</ele>
        <time>2025-03-02T13:05:44Z</time>
      </trkpt>
      <trkpt lat="44.58802" lon="5.23543">
        <ele>1195.54</ele>
        <time>2025-03-02T13:05:57Z</time>
      </trkpt>
      <trkpt lat="44.58808" lon="5.23543">
        <ele>1194.09</ele>
        <time>2025-03-02T13:06:02Z</time>
      </trkpt>
      <trkpt lat="44.58815" lon="5.23545">
        <ele>1193.13</ele>
        <time>2025-03-02T13:06:09Z</time>
      </trkpt>
      <trkpt lat="44.58829" lon="5.23552">
        <ele>1190.73</ele>
        <time>2025-03-02T13:06:24Z</time>
      </trkpt>
      <trkpt lat="44.58836" lon="5.23556">
        <ele>1189.29</ele>
        <time>2025-03-02T13:06:32Z</time>
      </trkpt>
      <trkpt lat="44.58839" lon="5.23555">
        <ele>1188.81</ele>
        <time>2025-03-02T13:06:35Z</time>
      </trkpt>
      <trkpt lat="44.58848" lon="5.23561">
        <ele>1187.37</ele>
        <time>2025-03-02T13:06:53Z</time>
      </trkpt>
      <trkpt lat="44.58854" lon="5.23564">
        <ele>1186.4</ele>
        <time>2025-03-02T13:07:01Z</time>
      </trkpt>
      <trkpt lat="44.58868" lon="5.23572">
        <ele>1184.48</ele>
        <time>2025-03-02T13:07:14Z</time>
      </trkpt>
      <trkpt lat="44.58879" lon="5.23582">
        <ele>1181.6</ele>
        <time>2025-03-02T13:07:28Z</time>
      </trkpt>
      <trkpt lat="44.58888" lon="5.2359">
        <ele>1178.23</ele>
        <time>2025-03-02T13:07:38Z</time>
      </trkpt>
      <trkpt lat="44.58895" lon="5.23599">
        <ele>1175.35</ele>
        <time>2025-03-02T13:07:48Z</time>
      </trkpt>
      <trkpt lat="44.58903" lon="5.23607">
        <ele>1171.98</ele>
        <time>2025-03-02T13:08:02Z</time>
      </trkpt>
      <trkpt lat="44.58901" lon="5.23609">
        <ele>1170.54</ele>
        <time>2025-03-02T13:08:16Z</time>
      </trkpt>
      <trkpt lat="44.58892" lon="5.23617">
        <ele>1168.62</ele>
        <time>2025-03-02T13:08:29Z</time>
      </trkpt>
      <trkpt lat="44.58876" lon="5.23626">
        <ele>1165.26</ele>
        <time>2025-03-02T13:08:44Z</time>
      </trkpt>
      <trkpt lat="44.58863" lon="5.23632">
        <ele>1161.89</ele>
        <time>2025-03-02T13:08:58Z</time>
      </trkpt>
      <trkpt lat="44.58857" lon="5.23635">
        <ele>1160.45</ele>
        <time>2025-03-02T13:09:07Z</time>
      </trkpt>
      <trkpt lat="44.58852" lon="5.23637">
        <ele>1159.01</ele>
        <time>2025-03-02T13:09:13Z</time>
      </trkpt>
      <trkpt lat="44.58838" lon="5.2364">
        <ele>1155.16</ele>
        <time>2025-03-02T13:09:29Z</time>
      </trkpt>
      <trkpt lat="44.58837" lon="5.23641">
        <ele>1154.68</ele>
        <time>2025-03-02T13:09:30Z</time>
      </trkpt>
      <trkpt lat="44.58827" lon="5.2365">
        <ele>1150.84</ele>
        <time>2025-03-02T13:09:43Z</time>
      </trkpt>
      <trkpt lat="44.58816" lon="5.23655">
        <ele>1147.95</ele>
        <time>2025-03-02T13:09:55Z</time>
      </trkpt>
      <trkpt lat="44.58808" lon="5.23663">
        <ele>1144.59</ele>
        <time>2025-03-02T13:10:07Z</time>
      </trkpt>
      <trkpt lat="44.588" lon="5.23672">
        <ele>1141.22</ele>
        <time>2025-03-02T13:10:18Z</time>
      </trkpt>
      <trkpt lat="44.58791" lon="5.23682">
        <ele>1137.86</ele>
        <time>2025-03-02T13:10:29Z</time>
      </trkpt>
      <trkpt lat="44.58783" lon="5.23693">
        <ele>1134.49</ele>
        <time>2025-03-02T13:10:42Z</time>
      </trkpt>
      <trkpt lat="44.58774" lon="5.23703">
        <ele>1131.61</ele>
        <time>2025-03-02T13:10:56Z</time>
      </trkpt>
      <trkpt lat="44.58764" lon="5.23712">
        <ele>1128.24</ele>
        <time>2025-03-02T13:11:09Z</time>
      </trkpt>
      <trkpt lat="44.58761" lon="5.23721">
        <ele>1125.36</ele>
        <time>2025-03-02T13:11:19Z</time>
      </trkpt>
      <trkpt lat="44.58765" lon="5.23734">
        <ele>1122</ele>
        <time>2025-03-02T13:11:33Z</time>
      </trkpt>
      <trkpt lat="44.58767" lon="5.23738">
        <ele>1121.03</ele>
        <time>2025-03-02T13:11:42Z</time>
      </trkpt>
      <trkpt lat="44.58767" lon="5.23746">
        <ele>1119.59</ele>
        <time>2025-03-02T13:11:49Z</time>
      </trkpt>
      <trkpt lat="44.58767" lon="5.23762">
        <ele>1116.23</ele>
        <time>2025-03-02T13:12:03Z</time>
      </trkpt>
      <trkpt lat="44.58768" lon="5.23766">
        <ele>1115.27</ele>
        <time>2025-03-02T13:12:06Z</time>
      </trkpt>
      <trkpt lat="44.58772" lon="5.23779">
        <ele>1111.9</ele>
        <time>2025-03-02T13:12:17Z</time>
      </trkpt>
      <trkpt lat="44.58774" lon="5.23792">
        <ele>1108.06</ele>
        <time>2025-03-02T13:12:30Z</time>
      </trkpt>
      <trkpt lat="44.58767" lon="5.238">
        <ele>1105.17</ele>
        <time>2025-03-02T13:12:42Z</time>
      </trkpt>
      <trkpt lat="44.58762" lon="5.23808">
        <ele>1101.81</ele>
        <time>2025-03-02T13:12:55Z</time>
      </trkpt>
      <trkpt lat="44.58764" lon="5.23822">
        <ele>1098.44</ele>
        <time>2025-03-02T13:13:08Z</time>
      </trkpt>
      <trkpt lat="44.58765" lon="5.23839">
        <ele>1095.08</ele>
        <time>2025-03-02T13:13:24Z</time>
      </trkpt>
      <trkpt lat="44.58766" lon="5.23858">
        <ele>1091.71</ele>
        <time>2025-03-02T13:13:37Z</time>
      </trkpt>
      <trkpt lat="44.58767" lon="5.23874">
        <ele>1090.27</ele>
        <time>2025-03-02T13:13:49Z</time>
      </trkpt>
      <trkpt lat="44.58766" lon="5.239">
        <ele>1087.39</ele>
        <time>2025-03-02T13:14:05Z</time>
      </trkpt>
      <trkpt lat="44.58767" lon="5.23907">
        <ele>1086.91</ele>
        <time>2025-03-02T13:14:11Z</time>
      </trkpt>
      <trkpt lat="44.58767" lon="5.23933">
        <ele>1084.99</ele>
        <time>2025-03-02T13:14:28Z</time>
      </trkpt>
      <trkpt lat="44.58769" lon="5.23947">
        <ele>1083.54</ele>
        <time>2025-03-02T13:14:44Z</time>
      </trkpt>
      <trkpt lat="44.58763" lon="5.23952">
        <ele>1081.14</ele>
        <time>2025-03-02T13:14:57Z</time>
      </trkpt>
      <trkpt lat="44.58757" lon="5.2395">
        <ele>1079.22</ele>
        <time>2025-03-02T13:15:07Z</time>
      </trkpt>
      <trkpt lat="44.58751" lon="5.23953">
        <ele>1077.29</ele>
        <time>2025-03-02T13:15:12Z</time>
      </trkpt>
      <trkpt lat="44.58741" lon="5.23945">
        <ele>1074.89</ele>
        <time>2025-03-02T13:15:25Z</time>
      </trkpt>
      <trkpt lat="44.58737" lon="5.23945">
        <ele>1073.45</ele>
        <time>2025-03-02T13:15:38Z</time>
      </trkpt>
      <trkpt lat="44.58734" lon="5.23947">
        <ele>1072.97</ele>
        <time>2025-03-02T13:15:51Z</time>
      </trkpt>
      <trkpt lat="44.58733" lon="5.23955">
        <ele>1074.41</ele>
        <time>2025-03-02T13:21:28Z</time>
      </trkpt>
      <trkpt lat="44.58732" lon="5.23969">
        <ele>1072.01</ele>
        <time>2025-03-02T13:21:39Z</time>
      </trkpt>
      <trkpt lat="44.58736" lon="5.23993">
        <ele>1070.08</ele>
        <time>2025-03-02T13:21:56Z</time>
      </trkpt>
      <trkpt lat="44.58737" lon="5.23994">
        <ele>1070.08</ele>
        <time>2025-03-02T13:21:57Z</time>
      </trkpt>
      <trkpt lat="44.58738" lon="5.2401">
        <ele>1065.76</ele>
        <time>2025-03-02T13:22:10Z</time>
      </trkpt>
      <trkpt lat="44.58739" lon="5.24025">
        <ele>1062.87</ele>
        <time>2025-03-02T13:22:20Z</time>
      </trkpt>
      <trkpt lat="44.58738" lon="5.24031">
        <ele>1061.91</ele>
        <time>2025-03-02T13:23:07Z</time>
      </trkpt>
      <trkpt lat="44.58737" lon="5.24033">
        <ele>1061.43</ele>
        <time>2025-03-02T13:23:09Z</time>
      </trkpt>
      <trkpt lat="44.58737" lon="5.24043">
        <ele>1059.03</ele>
        <time>2025-03-02T13:23:24Z</time>
      </trkpt>
      <trkpt lat="44.58738" lon="5.24054">
        <ele>1056.63</ele>
        <time>2025-03-02T13:23:38Z</time>
      </trkpt>
      <trkpt lat="44.58738" lon="5.24072">
        <ele>1052.3</ele>
        <time>2025-03-02T13:23:50Z</time>
      </trkpt>
      <trkpt lat="44.58738" lon="5.24086">
        <ele>1048.94</ele>
        <time>2025-03-02T13:24:00Z</time>
      </trkpt>
      <trkpt lat="44.58736" lon="5.24094">
        <ele>1047.01</ele>
        <time>2025-03-02T13:24:06Z</time>
      </trkpt>
      <trkpt lat="44.58736" lon="5.24105">
        <ele>1044.13</ele>
        <time>2025-03-02T13:24:14Z</time>
      </trkpt>
      <trkpt lat="44.58736" lon="5.24106">
        <ele>1044.13</ele>
        <time>2025-03-02T13:24:15Z</time>
      </trkpt>
      <trkpt lat="44.58737" lon="5.24112">
        <ele>1043.17</ele>
        <time>2025-03-02T13:24:19Z</time>
      </trkpt>
      <trkpt lat="44.58739" lon="5.24125">
        <ele>1040.76</ele>
        <time>2025-03-02T13:24:28Z</time>
      </trkpt>
      <trkpt lat="44.58739" lon="5.24141">
        <ele>1037.4</ele>
        <time>2025-03-02T13:24:38Z</time>
      </trkpt>
      <trkpt lat="44.58739" lon="5.24153">
        <ele>1035</ele>
        <time>2025-03-02T13:24:47Z</time>
      </trkpt>
      <trkpt lat="44.58737" lon="5.24163">
        <ele>1032.59</ele>
        <time>2025-03-02T13:24:55Z</time>
      </trkpt>
      <trkpt lat="44.58734" lon="5.24176">
        <ele>1028.75</ele>
        <time>2025-03-02T13:25:05Z</time>
      </trkpt>
      <trkpt lat="44.58731" lon="5.24187">
        <ele>1026.34</ele>
        <time>2025-03-02T13:25:13Z</time>
      </trkpt>
      <trkpt lat="44.58732" lon="5.24197">
        <ele>1024.9</ele>
        <time>2025-03-02T13:25:19Z</time>
      </trkpt>
      <trkpt lat="44.58734" lon="5.24204">
        <ele>1023.94</ele>
        <time>2025-03-02T13:25:25Z</time>
      </trkpt>
      <trkpt lat="44.58737" lon="5.24206">
        <ele>1023.46</ele>
        <time>2025-03-02T13:25:28Z</time>
      </trkpt>
      <trkpt lat="44.58745" lon="5.24219">
        <ele>1019.62</ele>
        <time>2025-03-02T13:25:40Z</time>
      </trkpt>
      <trkpt lat="44.58749" lon="5.24235">
        <ele>1016.25</ele>
        <time>2025-03-02T13:25:51Z</time>
      </trkpt>
      <trkpt lat="44.5875" lon="5.24243">
        <ele>1015.29</ele>
        <time>2025-03-02T13:25:56Z</time>
      </trkpt>
      <trkpt lat="44.58757" lon="5.24255">
        <ele>1011.93</ele>
        <time>2025-03-02T13:26:07Z</time>
      </trkpt>
      <trkpt lat="44.58766" lon="5.24269">
        <ele>1008.56</ele>
        <time>2025-03-02T13:26:19Z</time>
      </trkpt>
      <trkpt lat="44.58772" lon="5.24282">
        <ele>1006.16</ele>
        <time>2025-03-02T13:26:34Z</time>
      </trkpt>
      <trkpt lat="44.58773" lon="5.24285">
        <ele>1005.68</ele>
        <time>2025-03-02T13:26:37Z</time>
      </trkpt>
      <trkpt lat="44.58777" lon="5.2429">
        <ele>1004.23</ele>
        <time>2025-03-02T13:26:42Z</time>
      </trkpt>
      <trkpt lat="44.58786" lon="5.24305">
        <ele>1000.87</ele>
        <time>2025-03-02T13:26:57Z</time>
      </trkpt>
      <trkpt lat="44.58792" lon="5.24321">
        <ele>997.51</ele>
        <time>2025-03-02T13:27:10Z</time>
      </trkpt>
      <trkpt lat="44.58794" lon="5.24331">
        <ele>995.58</ele>
        <time>2025-03-02T13:27:17Z</time>
      </trkpt>
      <trkpt lat="44.58805" lon="5.24346">
        <ele>992.22</ele>
        <time>2025-03-02T13:27:30Z</time>
      </trkpt>
      <trkpt lat="44.58816" lon="5.24362">
        <ele>989.81</ele>
        <time>2025-03-02T13:27:44Z</time>
      </trkpt>
      <trkpt lat="44.58827" lon="5.24379">
        <ele>987.41</ele>
        <time>2025-03-02T13:27:58Z</time>
      </trkpt>
      <trkpt lat="44.58833" lon="5.2439">
        <ele>985.49</ele>
        <time>2025-03-02T13:28:08Z</time>
      </trkpt>
      <trkpt lat="44.5884" lon="5.24407">
        <ele>982.6</ele>
        <time>2025-03-02T13:28:18Z</time>
      </trkpt>
      <trkpt lat="44.58844" lon="5.24426">
        <ele>979.24</ele>
        <time>2025-03-02T13:28:30Z</time>
      </trkpt>
      <trkpt lat="44.58848" lon="5.24441">
        <ele>976.36</ele>
        <time>2025-03-02T13:28:42Z</time>
      </trkpt>
      <trkpt lat="44.58847" lon="5.24457">
        <ele>972.99</ele>
        <time>2025-03-02T13:28:56Z</time>
      </trkpt>
      <trkpt lat="44.58843" lon="5.24467">
        <ele>970.59</ele>
        <time>2025-03-02T13:29:07Z</time>
      </trkpt>
      <trkpt lat="44.58841" lon="5.24469">
        <ele>970.11</ele>
        <time>2025-03-02T13:29:09Z</time>
      </trkpt>
      <trkpt lat="44.58837" lon="5.24473">
        <ele>969.15</ele>
        <time>2025-03-02T13:29:13Z</time>
      </trkpt>
      <trkpt lat="44.58833" lon="5.24473">
        <ele>968.18</ele>
        <time>2025-03-02T13:29:17Z</time>
      </trkpt>
      <trkpt lat="44.58827" lon="5.24486">
        <ele>964.34</ele>
        <time>2025-03-02T13:29:31Z</time>
      </trkpt>
      <trkpt lat="44.58825" lon="5.24502">
        <ele>961.94</ele>
        <time>2025-03-02T13:29:43Z</time>
      </trkpt>
      <trkpt lat="44.5882" lon="5.2452">
        <ele>958.57</ele>
        <time>2025-03-02T13:29:56Z</time>
      </trkpt>
      <trkpt lat="44.58819" lon="5.2454">
        <ele>956.17</ele>
        <time>2025-03-02T13:30:09Z</time>
      </trkpt>
      <trkpt lat="44.58815" lon="5.24562">
        <ele>953.77</ele>
        <time>2025-03-02T13:30:22Z</time>
      </trkpt>
      <trkpt lat="44.58812" lon="5.24583">
        <ele>950.88</ele>
        <time>2025-03-02T13:30:37Z</time>
      </trkpt>
      <trkpt lat="44.58812" lon="5.24592">
        <ele>949.92</ele>
        <time>2025-03-02T13:30:43Z</time>
      </trkpt>
      <trkpt lat="44.58811" lon="5.24613">
        <ele>947.52</ele>
        <time>2025-03-02T13:30:57Z</time>
      </trkpt>
      <trkpt lat="44.5881" lon="5.24625">
        <ele>945.59</ele>
        <time>2025-03-02T13:31:05Z</time>
      </trkpt>
      <trkpt lat="44.5881" lon="5.24633">
        <ele>944.63</ele>
        <time>2025-03-02T13:31:09Z</time>
      </trkpt>
      <trkpt lat="44.58811" lon="5.24648">
        <ele>943.19</ele>
        <time>2025-03-02T13:31:17Z</time>
      </trkpt>
      <trkpt lat="44.5881" lon="5.24666">
        <ele>941.27</ele>
        <time>2025-03-02T13:31:29Z</time>
      </trkpt>
      <trkpt lat="44.58808" lon="5.24681">
        <ele>939.83</ele>
        <time>2025-03-02T13:31:42Z</time>
      </trkpt>
      <trkpt lat="44.58807" lon="5.24691">
        <ele>939.35</ele>
        <time>2025-03-02T13:35:33Z</time>
      </trkpt>
      <trkpt lat="44.58807" lon="5.24699">
        <ele>938.86</ele>
        <time>2025-03-02T13:35:48Z</time>
      </trkpt>
      <trkpt lat="44.58807" lon="5.24719">
        <ele>935.98</ele>
        <time>2025-03-02T13:36:03Z</time>
      </trkpt>
      <trkpt lat="44.58802" lon="5.24737">
        <ele>934.06</ele>
        <time>2025-03-02T13:36:17Z</time>
      </trkpt>
      <trkpt lat="44.588" lon="5.24758">
        <ele>930.69</ele>
        <time>2025-03-02T13:36:33Z</time>
      </trkpt>
      <trkpt lat="44.58799" lon="5.24775">
        <ele>927.81</ele>
        <time>2025-03-02T13:36:45Z</time>
      </trkpt>
      <trkpt lat="44.58795" lon="5.24786">
        <ele>925.89</ele>
        <time>2025-03-02T13:36:54Z</time>
      </trkpt>
      <trkpt lat="44.58791" lon="5.24796">
        <ele>924.93</ele>
        <time>2025-03-02T13:37:01Z</time>
      </trkpt>
      <trkpt lat="44.58787" lon="5.24802">
        <ele>923.48</ele>
        <time>2025-03-02T13:37:06Z</time>
      </trkpt>
      <trkpt lat="44.5878" lon="5.2482">
        <ele>920.6</ele>
        <time>2025-03-02T13:37:19Z</time>
      </trkpt>
      <trkpt lat="44.58772" lon="5.24841">
        <ele>918.2</ele>
        <time>2025-03-02T13:37:35Z</time>
      </trkpt>
      <trkpt lat="44.58765" lon="5.24868">
        <ele>914.35</ele>
        <time>2025-03-02T13:37:51Z</time>
      </trkpt>
      <trkpt lat="44.58763" lon="5.24886">
        <ele>911.47</ele>
        <time>2025-03-02T13:38:03Z</time>
      </trkpt>
      <trkpt lat="44.58761" lon="5.24899">
        <ele>909.54</ele>
        <time>2025-03-02T13:38:12Z</time>
      </trkpt>
      <trkpt lat="44.58754" lon="5.24926">
        <ele>906.66</ele>
        <time>2025-03-02T13:38:28Z</time>
      </trkpt>
      <trkpt lat="44.58748" lon="5.24936">
        <ele>906.18</ele>
        <time>2025-03-02T13:38:36Z</time>
      </trkpt>
      <trkpt lat="44.58748" lon="5.24955">
        <ele>903.3</ele>
        <time>2025-03-02T13:38:47Z</time>
      </trkpt>
      <trkpt lat="44.58749" lon="5.24967">
        <ele>901.37</ele>
        <time>2025-03-02T13:38:54Z</time>
      </trkpt>
      <trkpt lat="44.58745" lon="5.24999">
        <ele>898.49</ele>
        <time>2025-03-02T13:39:12Z</time>
      </trkpt>
      <trkpt lat="44.58739" lon="5.25022">
        <ele>896.57</ele>
        <time>2025-03-02T13:39:28Z</time>
      </trkpt>
      <trkpt lat="44.58728" lon="5.25047">
        <ele>896.09</ele>
        <time>2025-03-02T13:39:43Z</time>
      </trkpt>
      <trkpt lat="44.58716" lon="5.25073">
        <ele>894.16</ele>
        <time>2025-03-02T13:40:01Z</time>
      </trkpt>
      <trkpt lat="44.58711" lon="5.25086">
        <ele>891.28</ele>
        <time>2025-03-02T13:40:13Z</time>
      </trkpt>
      <trkpt lat="44.58706" lon="5.25104">
        <ele>887.91</ele>
        <time>2025-03-02T13:40:26Z</time>
      </trkpt>
      <trkpt lat="44.587" lon="5.25113">
        <ele>886.47</ele>
        <time>2025-03-02T13:40:32Z</time>
      </trkpt>
      <trkpt lat="44.58699" lon="5.25117">
        <ele>886.47</ele>
        <time>2025-03-02T13:40:34Z</time>
      </trkpt>
      <trkpt lat="44.58695" lon="5.25125">
        <ele>885.51</ele>
        <time>2025-03-02T13:40:38Z</time>
      </trkpt>
      <trkpt lat="44.58685" lon="5.25144">
        <ele>882.15</ele>
        <time>2025-03-02T13:40:55Z</time>
      </trkpt>
      <trkpt lat="44.58676" lon="5.25165">
        <ele>879.26</ele>
        <time>2025-03-02T13:41:10Z</time>
      </trkpt>
      <trkpt lat="44.58665" lon="5.25187">
        <ele>876.86</ele>
        <time>2025-03-02T13:41:25Z</time>
      </trkpt>
      <trkpt lat="44.58656" lon="5.25203">
        <ele>873.98</ele>
        <time>2025-03-02T13:41:37Z</time>
      </trkpt>
      <trkpt lat="44.58648" lon="5.25215">
        <ele>871.09</ele>
        <time>2025-03-02T13:41:49Z</time>
      </trkpt>
      <trkpt lat="44.58636" lon="5.2523">
        <ele>867.25</ele>
        <time>2025-03-02T13:42:03Z</time>
      </trkpt>
      <trkpt lat="44.58626" lon="5.2524">
        <ele>864.36</ele>
        <time>2025-03-02T13:42:14Z</time>
      </trkpt>
      <trkpt lat="44.58625" lon="5.25241">
        <ele>864.36</ele>
        <time>2025-03-02T13:42:15Z</time>
      </trkpt>
      <trkpt lat="44.58613" lon="5.25253">
        <ele>861</ele>
        <time>2025-03-02T13:42:27Z</time>
      </trkpt>
      <trkpt lat="44.58604" lon="5.25264">
        <ele>858.59</ele>
        <time>2025-03-02T13:42:38Z</time>
      </trkpt>
      <trkpt lat="44.58596" lon="5.25271">
        <ele>855.71</ele>
        <time>2025-03-02T13:42:47Z</time>
      </trkpt>
      <trkpt lat="44.5859" lon="5.25276">
        <ele>853.79</ele>
        <time>2025-03-02T13:42:55Z</time>
      </trkpt>
      <trkpt lat="44.58578" lon="5.25286">
        <ele>849.46</ele>
        <time>2025-03-02T13:43:07Z</time>
      </trkpt>
      <trkpt lat="44.58571" lon="5.25296">
        <ele>846.58</ele>
        <time>2025-03-02T13:43:17Z</time>
      </trkpt>
      <trkpt lat="44.58568" lon="5.25303">
        <ele>845.14</ele>
        <time>2025-03-02T13:43:22Z</time>
      </trkpt>
      <trkpt lat="44.58565" lon="5.25307">
        <ele>844.18</ele>
        <time>2025-03-02T13:43:26Z</time>
      </trkpt>
      <trkpt lat="44.58563" lon="5.25309">
        <ele>842.73</ele>
        <time>2025-03-02T13:43:29Z</time>
      </trkpt>
      <trkpt lat="44.58553" lon="5.25327">
        <ele>840.81</ele>
        <time>2025-03-02T13:43:42Z</time>
      </trkpt>
      <trkpt lat="44.58545" lon="5.25341">
        <ele>840.81</ele>
        <time>2025-03-02T13:43:58Z</time>
      </trkpt>
      <trkpt lat="44.58541" lon="5.25345">
        <ele>840.81</ele>
        <time>2025-03-02T13:44:13Z</time>
      </trkpt>
      <trkpt lat="44.58539" lon="5.25346">
        <ele>840.81</ele>
        <time>2025-03-02T13:44:35Z</time>
      </trkpt>
      <trkpt lat="44.58538" lon="5.25346">
        <ele>840.81</ele>
        <time>2025-03-02T13:44:53Z</time>
      </trkpt>
      <trkpt lat="44.58537" lon="5.25347">
        <ele>840.33</ele>
        <time>2025-03-02T13:45:11Z</time>
      </trkpt>
      <trkpt lat="44.5853" lon="5.25354">
        <ele>839.85</ele>
        <time>2025-03-02T13:47:53Z</time>
      </trkpt>
      <trkpt lat="44.58514" lon="5.2537">
        <ele>838.41</ele>
        <time>2025-03-02T13:48:08Z</time>
      </trkpt>
      <trkpt lat="44.58509" lon="5.25377">
        <ele>838.41</ele>
        <time>2025-03-02T13:48:13Z</time>
      </trkpt>
      <trkpt lat="44.58501" lon="5.25389">
        <ele>839.85</ele>
        <time>2025-03-02T13:48:23Z</time>
      </trkpt>
      <trkpt lat="44.58492" lon="5.25404">
        <ele>842.73</ele>
        <time>2025-03-02T13:48:37Z</time>
      </trkpt>
      <trkpt lat="44.58485" lon="5.25416">
        <ele>844.66</ele>
        <time>2025-03-02T13:48:51Z</time>
      </trkpt>
      <trkpt lat="44.58479" lon="5.25423">
        <ele>845.14</ele>
        <time>2025-03-02T13:49:05Z</time>
      </trkpt>
      <trkpt lat="44.58468" lon="5.2544">
        <ele>845.14</ele>
        <time>2025-03-02T13:49:21Z</time>
      </trkpt>
      <trkpt lat="44.58455" lon="5.25452">
        <ele>845.14</ele>
        <time>2025-03-02T13:49:36Z</time>
      </trkpt>
      <trkpt lat="44.58453" lon="5.25455">
        <ele>843.69</ele>
        <time>2025-03-02T13:49:39Z</time>
      </trkpt>
      <trkpt lat="44.58439" lon="5.25467">
        <ele>840.33</ele>
        <time>2025-03-02T13:49:55Z</time>
      </trkpt>
      <trkpt lat="44.58433" lon="5.25473">
        <ele>839.37</ele>
        <time>2025-03-02T13:50:02Z</time>
      </trkpt>
      <trkpt lat="44.58416" lon="5.25486">
        <ele>836.48</ele>
        <time>2025-03-02T13:50:19Z</time>
      </trkpt>
      <trkpt lat="44.58402" lon="5.25496">
        <ele>835.04</ele>
        <time>2025-03-02T13:50:31Z</time>
      </trkpt>
      <trkpt lat="44.58396" lon="5.255">
        <ele>834.08</ele>
        <time>2025-03-02T13:50:37Z</time>
      </trkpt>
      <trkpt lat="44.58384" lon="5.25518">
        <ele>831.68</ele>
        <time>2025-03-02T13:50:52Z</time>
      </trkpt>
      <trkpt lat="44.58383" lon="5.25519">
        <ele>831.68</ele>
        <time>2025-03-02T13:50:53Z</time>
      </trkpt>
      <trkpt lat="44.58369" lon="5.25538">
        <ele>829.27</ele>
        <time>2025-03-02T13:51:09Z</time>
      </trkpt>
      <trkpt lat="44.58362" lon="5.25546">
        <ele>827.35</ele>
        <time>2025-03-02T13:51:16Z</time>
      </trkpt>
      <trkpt lat="44.5835" lon="5.25559">
        <ele>823.99</ele>
        <time>2025-03-02T13:51:28Z</time>
      </trkpt>
      <trkpt lat="44.58339" lon="5.25569">
        <ele>821.1</ele>
        <time>2025-03-02T13:51:39Z</time>
      </trkpt>
      <trkpt lat="44.58328" lon="5.2558">
        <ele>818.22</ele>
        <time>2025-03-02T13:51:51Z</time>
      </trkpt>
      <trkpt lat="44.58323" lon="5.2558">
        <ele>816.78</ele>
        <time>2025-03-02T13:51:56Z</time>
      </trkpt>
      <trkpt lat="44.5831" lon="5.25598">
        <ele>813.89</ele>
        <time>2025-03-02T13:52:12Z</time>
      </trkpt>
      <trkpt lat="44.58306" lon="5.25603">
        <ele>812.93</ele>
        <time>2025-03-02T13:52:16Z</time>
      </trkpt>
      <trkpt lat="44.58295" lon="5.2562">
        <ele>809.57</ele>
        <time>2025-03-02T13:52:29Z</time>
      </trkpt>
      <trkpt lat="44.58285" lon="5.25634">
        <ele>806.2</ele>
        <time>2025-03-02T13:52:42Z</time>
      </trkpt>
      <trkpt lat="44.58283" lon="5.25637">
        <ele>804.76</ele>
        <time>2025-03-02T13:52:45Z</time>
      </trkpt>
      <trkpt lat="44.58281" lon="5.25646">
        <ele>802.84</ele>
        <time>2025-03-02T13:52:51Z</time>
      </trkpt>
      <trkpt lat="44.58272" lon="5.2566">
        <ele>799.47</ele>
        <time>2025-03-02T13:53:04Z</time>
      </trkpt>
      <trkpt lat="44.5827" lon="5.25662">
        <ele>798.99</ele>
        <time>2025-03-02T13:53:06Z</time>
      </trkpt>
      <trkpt lat="44.58265" lon="5.25668">
        <ele>797.07</ele>
        <time>2025-03-02T13:53:12Z</time>
      </trkpt>
      <trkpt lat="44.58256" lon="5.25681">
        <ele>794.19</ele>
        <time>2025-03-02T13:53:23Z</time>
      </trkpt>
      <trkpt lat="44.58255" lon="5.25682">
        <ele>793.71</ele>
        <time>2025-03-02T13:53:24Z</time>
      </trkpt>
      <trkpt lat="44.58242" lon="5.25702">
        <ele>790.34</ele>
        <time>2025-03-02T13:53:39Z</time>
      </trkpt>
      <trkpt lat="44.58232" lon="5.2572">
        <ele>788.42</ele>
        <time>2025-03-02T13:53:53Z</time>
      </trkpt>
      <trkpt lat="44.58221" lon="5.25738">
        <ele>788.42</ele>
        <time>2025-03-02T13:54:09Z</time>
      </trkpt>
      <trkpt lat="44.58218" lon="5.25744">
        <ele>789.86</ele>
        <time>2025-03-02T13:54:15Z</time>
      </trkpt>
      <trkpt lat="44.58211" lon="5.25762">
        <ele>791.78</ele>
        <time>2025-03-02T13:54:28Z</time>
      </trkpt>
      <trkpt lat="44.58201" lon="5.25779">
        <ele>792.26</ele>
        <time>2025-03-02T13:54:42Z</time>
      </trkpt>
      <trkpt lat="44.58191" lon="5.25797">
        <ele>790.82</ele>
        <time>2025-03-02T13:54:57Z</time>
      </trkpt>
      <trkpt lat="44.58182" lon="5.25811">
        <ele>787.46</ele>
        <time>2025-03-02T13:55:09Z</time>
      </trkpt>
      <trkpt lat="44.58173" lon="5.25827">
        <ele>784.57</ele>
        <time>2025-03-02T13:55:21Z</time>
      </trkpt>
      <trkpt lat="44.58167" lon="5.25838">
        <ele>781.69</ele>
        <time>2025-03-02T13:55:30Z</time>
      </trkpt>
      <trkpt lat="44.58164" lon="5.25843">
        <ele>780.73</ele>
        <time>2025-03-02T13:55:34Z</time>
      </trkpt>
      <trkpt lat="44.58158" lon="5.25857">
        <ele>776.88</ele>
        <time>2025-03-02T13:55:47Z</time>
      </trkpt>
      <trkpt lat="44.58151" lon="5.25866">
        <ele>774</ele>
        <time>2025-03-02T13:55:57Z</time>
      </trkpt>
      <trkpt lat="44.58145" lon="5.25875">
        <ele>770.63</ele>
        <time>2025-03-02T13:56:07Z</time>
      </trkpt>
      <trkpt lat="44.58142" lon="5.25891">
        <ele>768.23</ele>
        <time>2025-03-02T13:56:20Z</time>
      </trkpt>
      <trkpt lat="44.58143" lon="5.25905">
        <ele>764.87</ele>
        <time>2025-03-02T13:56:32Z</time>
      </trkpt>
      <trkpt lat="44.58142" lon="5.25905">
        <ele>764.87</ele>
        <time>2025-03-02T13:56:33Z</time>
      </trkpt>
      <trkpt lat="44.58128" lon="5.25909">
        <ele>761.98</ele>
        <time>2025-03-02T13:56:48Z</time>
      </trkpt>
      <trkpt lat="44.58117" lon="5.25905">
        <ele>758.62</ele>
        <time>2025-03-02T13:57:00Z</time>
      </trkpt>
      <trkpt lat="44.58111" lon="5.25912">
        <ele>755.25</ele>
        <time>2025-03-02T13:57:15Z</time>
      </trkpt>
      <trkpt lat="44.58104" lon="5.25915">
        <ele>752.37</ele>
        <time>2025-03-02T13:57:28Z</time>
      </trkpt>
      <trkpt lat="44.58098" lon="5.25925">
        <ele>749</ele>
        <time>2025-03-02T13:57:41Z</time>
      </trkpt>
      <trkpt lat="44.58093" lon="5.25929">
        <ele>746.12</ele>
        <time>2025-03-02T13:57:52Z</time>
      </trkpt>
      <trkpt lat="44.58089" lon="5.25938">
        <ele>742.76</ele>
        <time>2025-03-02T13:58:02Z</time>
      </trkpt>
      <trkpt lat="44.58089" lon="5.25947">
        <ele>741.79</ele>
        <time>2025-03-02T13:58:09Z</time>
      </trkpt>
      <trkpt lat="44.58087" lon="5.25952">
        <ele>740.35</ele>
        <time>2025-03-02T13:58:14Z</time>
      </trkpt>
      <trkpt lat="44.5807" lon="5.25945">
        <ele>737.47</ele>
        <time>2025-03-02T13:58:29Z</time>
      </trkpt>
      <trkpt lat="44.58062" lon="5.25943">
        <ele>734.1</ele>
        <time>2025-03-02T13:58:43Z</time>
      </trkpt>
      <trkpt lat="44.5806" lon="5.25958">
        <ele>730.74</ele>
        <time>2025-03-02T13:58:56Z</time>
      </trkpt>
      <trkpt lat="44.58053" lon="5.25963">
        <ele>729.3</ele>
        <time>2025-03-02T13:59:04Z</time>
      </trkpt>
      <trkpt lat="44.58049" lon="5.25967">
        <ele>727.86</ele>
        <time>2025-03-02T13:59:08Z</time>
      </trkpt>
      <trkpt lat="44.58045" lon="5.25971">
        <ele>726.41</ele>
        <time>2025-03-02T13:59:13Z</time>
      </trkpt>
      <trkpt lat="44.58037" lon="5.25986">
        <ele>722.57</ele>
        <time>2025-03-02T13:59:25Z</time>
      </trkpt>
      <trkpt lat="44.58029" lon="5.25995">
        <ele>719.68</ele>
        <time>2025-03-02T13:59:34Z</time>
      </trkpt>
      <trkpt lat="44.5802" lon="5.2601">
        <ele>716.32</ele>
        <time>2025-03-02T13:59:47Z</time>
      </trkpt>
      <trkpt lat="44.58013" lon="5.26023">
        <ele>712.95</ele>
        <time>2025-03-02T13:59:59Z</time>
      </trkpt>
      <trkpt lat="44.58006" lon="5.26035">
        <ele>709.59</ele>
        <time>2025-03-02T14:00:10Z</time>
      </trkpt>
      <trkpt lat="44.58" lon="5.26048">
        <ele>706.23</ele>
        <time>2025-03-02T14:00:22Z</time>
      </trkpt>
      <trkpt lat="44.57996" lon="5.26065">
        <ele>703.34</ele>
        <time>2025-03-02T14:00:35Z</time>
      </trkpt>
      <trkpt lat="44.57989" lon="5.26081">
        <ele>700.46</ele>
        <time>2025-03-02T14:00:47Z</time>
      </trkpt>
      <trkpt lat="44.57984" lon="5.26096">
        <ele>697.57</ele>
        <time>2025-03-02T14:00:58Z</time>
      </trkpt>
      <trkpt lat="44.57977" lon="5.26108">
        <ele>694.21</ele>
        <time>2025-03-02T14:01:10Z</time>
      </trkpt>
      <trkpt lat="44.57967" lon="5.26118">
        <ele>691.33</ele>
        <time>2025-03-02T14:01:25Z</time>
      </trkpt>
      <trkpt lat="44.5796" lon="5.2613">
        <ele>688.44</ele>
        <time>2025-03-02T14:01:37Z</time>
      </trkpt>
      <trkpt lat="44.57959" lon="5.26137">
        <ele>687.48</ele>
        <time>2025-03-02T14:01:42Z</time>
      </trkpt>
      <trkpt lat="44.57949" lon="5.26157">
        <ele>684.6</ele>
        <time>2025-03-02T14:01:56Z</time>
      </trkpt>
      <trkpt lat="44.5794" lon="5.2618">
        <ele>681.23</ele>
        <time>2025-03-02T14:02:11Z</time>
      </trkpt>
      <trkpt lat="44.57934" lon="5.26198">
        <ele>678.83</ele>
        <time>2025-03-02T14:02:24Z</time>
      </trkpt>
      <trkpt lat="44.57931" lon="5.26214">
        <ele>677.39</ele>
        <time>2025-03-02T14:02:34Z</time>
      </trkpt>
      <trkpt lat="44.57922" lon="5.26238">
        <ele>674.02</ele>
        <time>2025-03-02T14:02:50Z</time>
      </trkpt>
      <trkpt lat="44.57924" lon="5.26262">
        <ele>671.62</ele>
        <time>2025-03-02T14:03:04Z</time>
      </trkpt>
      <trkpt lat="44.57928" lon="5.26273">
        <ele>669.7</ele>
        <time>2025-03-02T14:03:12Z</time>
      </trkpt>
      <trkpt lat="44.57922" lon="5.26292">
        <ele>665.85</ele>
        <time>2025-03-02T14:03:27Z</time>
      </trkpt>
      <trkpt lat="44.57921" lon="5.26293">
        <ele>665.85</ele>
        <time>2025-03-02T14:03:28Z</time>
      </trkpt>
      <trkpt lat="44.57914" lon="5.26308">
        <ele>662.97</ele>
        <time>2025-03-02T14:03:40Z</time>
      </trkpt>
      <trkpt lat="44.57913" lon="5.26322">
        <ele>661.04</ele>
        <time>2025-03-02T14:03:49Z</time>
      </trkpt>
      <trkpt lat="44.57913" lon="5.26325">
        <ele>660.56</ele>
        <time>2025-03-02T14:03:51Z</time>
      </trkpt>
      <trkpt lat="44.57912" lon="5.26348">
        <ele>658.16</ele>
        <time>2025-03-02T14:04:04Z</time>
      </trkpt>
      <trkpt lat="44.57904" lon="5.26369">
        <ele>654.8</ele>
        <time>2025-03-02T14:04:16Z</time>
      </trkpt>
      <trkpt lat="44.57906" lon="5.26376">
        <ele>654.8</ele>
        <time>2025-03-02T14:04:20Z</time>
      </trkpt>
      <trkpt lat="44.57905" lon="5.26386">
        <ele>653.83</ele>
        <time>2025-03-02T14:04:25Z</time>
      </trkpt>
      <trkpt lat="44.57908" lon="5.26403">
        <ele>651.91</ele>
        <time>2025-03-02T14:04:34Z</time>
      </trkpt>
      <trkpt lat="44.57896" lon="5.26412">
        <ele>649.99</ele>
        <time>2025-03-02T14:04:47Z</time>
      </trkpt>
      <trkpt lat="44.57879" lon="5.26422">
        <ele>647.59</ele>
        <time>2025-03-02T14:05:02Z</time>
      </trkpt>
      <trkpt lat="44.57869" lon="5.2643">
        <ele>644.22</ele>
        <time>2025-03-02T14:05:16Z</time>
      </trkpt>
      <trkpt lat="44.57876" lon="5.26446">
        <ele>641.82</ele>
        <time>2025-03-02T14:05:29Z</time>
      </trkpt>
      <trkpt lat="44.57872" lon="5.26453">
        <ele>639.89</ele>
        <time>2025-03-02T14:05:40Z</time>
      </trkpt>
      <trkpt lat="44.5786" lon="5.26453">
        <ele>636.53</ele>
        <time>2025-03-02T14:05:52Z</time>
      </trkpt>
      <trkpt lat="44.57854" lon="5.26454">
        <ele>634.13</ele>
        <time>2025-03-02T14:06:04Z</time>
      </trkpt>
      <trkpt lat="44.57852" lon="5.26465">
        <ele>630.76</ele>
        <time>2025-03-02T14:06:18Z</time>
      </trkpt>
      <trkpt lat="44.57843" lon="5.26458">
        <ele>627.4</ele>
        <time>2025-03-02T14:06:30Z</time>
      </trkpt>
      <trkpt lat="44.57841" lon="5.26466">
        <ele>624.51</ele>
        <time>2025-03-02T14:06:43Z</time>
      </trkpt>
      <trkpt lat="44.57841" lon="5.26468">
        <ele>624.03</ele>
        <time>2025-03-02T14:06:45Z</time>
      </trkpt>
      <trkpt lat="44.57838" lon="5.26468">
        <ele>623.55</ele>
        <time>2025-03-02T14:06:50Z</time>
      </trkpt>
      <trkpt lat="44.57829" lon="5.26461">
        <ele>620.67</ele>
        <time>2025-03-02T14:07:02Z</time>
      </trkpt>
      <trkpt lat="44.57827" lon="5.26475">
        <ele>616.82</ele>
        <time>2025-03-02T14:07:18Z</time>
      </trkpt>
      <trkpt lat="44.57821" lon="5.26474">
        <ele>614.42</ele>
        <time>2025-03-02T14:07:31Z</time>
      </trkpt>
      <trkpt lat="44.57821" lon="5.26476">
        <ele>613.94</ele>
        <time>2025-03-02T14:07:34Z</time>
      </trkpt>
      <trkpt lat="44.57818" lon="5.26476">
        <ele>612.98</ele>
        <time>2025-03-02T14:07:38Z</time>
      </trkpt>
      <trkpt lat="44.57811" lon="5.26473">
        <ele>609.61</ele>
        <time>2025-03-02T14:07:52Z</time>
      </trkpt>
      <trkpt lat="44.57807" lon="5.26477">
        <ele>607.21</ele>
        <time>2025-03-02T14:08:04Z</time>
      </trkpt>
      <trkpt lat="44.57802" lon="5.26483">
        <ele>603.85</ele>
        <time>2025-03-02T14:08:17Z</time>
      </trkpt>
      <trkpt lat="44.57798" lon="5.26489">
        <ele>600.96</ele>
        <time>2025-03-02T14:08:29Z</time>
      </trkpt>
      <trkpt lat="44.57795" lon="5.26496">
        <ele>598.56</ele>
        <time>2025-03-02T14:08:40Z</time>
      </trkpt>
      <trkpt lat="44.57787" lon="5.26494">
        <ele>595.19</ele>
        <time>2025-03-02T14:08:50Z</time>
      </trkpt>
      <trkpt lat="44.57774" lon="5.26487">
        <ele>592.31</ele>
        <time>2025-03-02T14:09:06Z</time>
      </trkpt>
      <trkpt lat="44.57772" lon="5.26494">
        <ele>593.27</ele>
        <time>2025-03-02T14:20:52Z</time>
      </trkpt>
      <trkpt lat="44.57769" lon="5.26507">
        <ele>593.27</ele>
        <time>2025-03-02T14:21:02Z</time>
      </trkpt>
      <trkpt lat="44.57768" lon="5.26537">
        <ele>591.83</ele>
        <time>2025-03-02T14:21:19Z</time>
      </trkpt>
      <trkpt lat="44.57769" lon="5.2656">
        <ele>590.39</ele>
        <time>2025-03-02T14:21:35Z</time>
      </trkpt>
      <trkpt lat="44.57767" lon="5.26585">
        <ele>589.43</ele>
        <time>2025-03-02T14:21:52Z</time>
      </trkpt>
      <trkpt lat="44.57763" lon="5.26614">
        <ele>586.06</ele>
        <time>2025-03-02T14:22:08Z</time>
      </trkpt>
      <trkpt lat="44.57761" lon="5.26643">
        <ele>584.62</ele>
        <time>2025-03-02T14:22:24Z</time>
      </trkpt>
      <trkpt lat="44.57761" lon="5.26674">
        <ele>583.18</ele>
        <time>2025-03-02T14:22:41Z</time>
      </trkpt>
      <trkpt lat="44.57769" lon="5.26704">
        <ele>582.22</ele>
        <time>2025-03-02T14:22:57Z</time>
      </trkpt>
      <trkpt lat="44.57777" lon="5.26735">
        <ele>580.77</ele>
        <time>2025-03-02T14:23:12Z</time>
      </trkpt>
      <trkpt lat="44.57773" lon="5.26748">
        <ele>578.85</ele>
        <time>2025-03-02T14:23:29Z</time>
      </trkpt>
      <trkpt lat="44.57769" lon="5.26757">
        <ele>577.41</ele>
        <time>2025-03-02T14:23:41Z</time>
      </trkpt>
      <trkpt lat="44.57769" lon="5.26764">
        <ele>576.93</ele>
        <time>2025-03-02T14:23:56Z</time>
      </trkpt>
      <trkpt lat="44.57767" lon="5.26775">
        <ele>577.41</ele>
        <time>2025-03-02T14:24:25Z</time>
      </trkpt>
      <trkpt lat="44.57766" lon="5.26788">
        <ele>580.77</ele>
        <time>2025-03-02T14:24:40Z</time>
      </trkpt>
      <trkpt lat="44.57769" lon="5.26793">
        <ele>579.81</ele>
        <time>2025-03-02T14:24:53Z</time>
      </trkpt>
      <trkpt lat="44.5777" lon="5.26795">
        <ele>578.85</ele>
        <time>2025-03-02T14:24:55Z</time>
      </trkpt>
      <trkpt lat="44.5778" lon="5.26807">
        <ele>577.41</ele>
        <time>2025-03-02T14:25:05Z</time>
      </trkpt>
      <trkpt lat="44.57781" lon="5.26826">
        <ele>576.93</ele>
        <time>2025-03-02T14:25:19Z</time>
      </trkpt>
      <trkpt lat="44.57782" lon="5.26828">
        <ele>576.93</ele>
        <time>2025-03-02T14:25:29Z</time>
      </trkpt>
      <trkpt lat="44.5778" lon="5.26832">
        <ele>576.93</ele>
        <time>2025-03-02T14:25:33Z</time>
      </trkpt>
      <trkpt lat="44.57778" lon="5.26845">
        <ele>576.93</ele>
        <time>2025-03-02T14:25:44Z</time>
      </trkpt>
      <trkpt lat="44.57778" lon="5.26854">
        <ele>576.93</ele>
        <time>2025-03-02T14:25:49Z</time>
      </trkpt>
      <trkpt lat="44.57778" lon="5.26857">
        <ele>578.37</ele>
        <time>2025-03-02T14:25:51Z</time>
      </trkpt>
      <trkpt lat="44.57777" lon="5.26879">
        <ele>578.85</ele>
        <time>2025-03-02T14:26:03Z</time>
      </trkpt>
      <trkpt lat="44.57777" lon="5.26901">
        <ele>579.81</ele>
        <time>2025-03-02T14:26:17Z</time>
      </trkpt>
      <trkpt lat="44.57778" lon="5.26921">
        <ele>580.29</ele>
        <time>2025-03-02T14:26:29Z</time>
      </trkpt>
      <trkpt lat="44.57778" lon="5.26925">
        <ele>580.29</ele>
        <time>2025-03-02T14:26:32Z</time>
      </trkpt>
      <trkpt lat="44.57772" lon="5.26945">
        <ele>582.22</ele>
        <time>2025-03-02T14:26:46Z</time>
      </trkpt>
      <trkpt lat="44.57766" lon="5.26953">
        <ele>583.66</ele>
        <time>2025-03-02T14:27:03Z</time>
      </trkpt>
      <trkpt lat="44.57758" lon="5.26964">
        <ele>586.54</ele>
        <time>2025-03-02T14:27:17Z</time>
      </trkpt>
      <trkpt lat="44.5775" lon="5.26977">
        <ele>589.91</ele>
        <time>2025-03-02T14:27:31Z</time>
      </trkpt>
      <trkpt lat="44.57743" lon="5.26987">
        <ele>593.27</ele>
        <time>2025-03-02T14:27:45Z</time>
      </trkpt>
      <trkpt lat="44.57738" lon="5.27">
        <ele>596.15</ele>
        <time>2025-03-02T14:27:59Z</time>
      </trkpt>
      <trkpt lat="44.57737" lon="5.27015">
        <ele>599.04</ele>
        <time>2025-03-02T14:28:13Z</time>
      </trkpt>
      <trkpt lat="44.57736" lon="5.27026">
        <ele>600.48</ele>
        <time>2025-03-02T14:28:23Z</time>
      </trkpt>
      <trkpt lat="44.57734" lon="5.27047">
        <ele>602.4</ele>
        <time>2025-03-02T14:28:37Z</time>
      </trkpt>
      <trkpt lat="44.57732" lon="5.27066">
        <ele>604.33</ele>
        <time>2025-03-02T14:28:51Z</time>
      </trkpt>
      <trkpt lat="44.57728" lon="5.27083">
        <ele>606.25</ele>
        <time>2025-03-02T14:29:04Z</time>
      </trkpt>
      <trkpt lat="44.57724" lon="5.27089">
        <ele>607.69</ele>
        <time>2025-03-02T14:29:10Z</time>
      </trkpt>
      <trkpt lat="44.57714" lon="5.27102">
        <ele>609.61</ele>
        <time>2025-03-02T14:29:24Z</time>
      </trkpt>
      <trkpt lat="44.577" lon="5.27119">
        <ele>612.02</ele>
        <time>2025-03-02T14:29:39Z</time>
      </trkpt>
      <trkpt lat="44.57687" lon="5.27129">
        <ele>614.9</ele>
        <time>2025-03-02T14:29:53Z</time>
      </trkpt>
      <trkpt lat="44.57675" lon="5.27139">
        <ele>618.26</ele>
        <time>2025-03-02T14:30:09Z</time>
      </trkpt>
      <trkpt lat="44.57664" lon="5.27149">
        <ele>620.67</ele>
        <time>2025-03-02T14:30:22Z</time>
      </trkpt>
      <trkpt lat="44.57651" lon="5.2716">
        <ele>623.07</ele>
        <time>2025-03-02T14:30:36Z</time>
      </trkpt>
      <trkpt lat="44.57641" lon="5.2717">
        <ele>625.96</ele>
        <time>2025-03-02T14:30:49Z</time>
      </trkpt>
      <trkpt lat="44.5763" lon="5.27182">
        <ele>627.88</ele>
        <time>2025-03-02T14:31:02Z</time>
      </trkpt>
      <trkpt lat="44.57619" lon="5.27194">
        <ele>629.8</ele>
        <time>2025-03-02T14:31:17Z</time>
      </trkpt>
      <trkpt lat="44.57606" lon="5.272">
        <ele>632.2</ele>
        <time>2025-03-02T14:31:30Z</time>
      </trkpt>
      <trkpt lat="44.57598" lon="5.27202">
        <ele>633.17</ele>
        <time>2025-03-02T14:31:37Z</time>
      </trkpt>
      <trkpt lat="44.57582" lon="5.27205">
        <ele>637.01</ele>
        <time>2025-03-02T14:31:54Z</time>
      </trkpt>
      <trkpt lat="44.57569" lon="5.27211">
        <ele>638.93</ele>
        <time>2025-03-02T14:32:06Z</time>
      </trkpt>
      <trkpt lat="44.57554" lon="5.27216">
        <ele>640.38</ele>
        <time>2025-03-02T14:32:20Z</time>
      </trkpt>
      <trkpt lat="44.57551" lon="5.27217">
        <ele>640.38</ele>
        <time>2025-03-02T14:32:22Z</time>
      </trkpt>
      <trkpt lat="44.57532" lon="5.27221">
        <ele>641.82</ele>
        <time>2025-03-02T14:32:37Z</time>
      </trkpt>
      <trkpt lat="44.57517" lon="5.27227">
        <ele>642.3</ele>
        <time>2025-03-02T14:32:52Z</time>
      </trkpt>
      <trkpt lat="44.57514" lon="5.27228">
        <ele>642.3</ele>
        <time>2025-03-02T14:32:55Z</time>
      </trkpt>
      <trkpt lat="44.57505" lon="5.27231">
        <ele>642.78</ele>
        <time>2025-03-02T14:38:30Z</time>
      </trkpt>
      <trkpt lat="44.57501" lon="5.27236">
        <ele>643.26</ele>
        <time>2025-03-02T14:38:44Z</time>
      </trkpt>
      <trkpt lat="44.57496" lon="5.2724">
        <ele>641.82</ele>
        <time>2025-03-02T14:38:50Z</time>
      </trkpt>
      <trkpt lat="44.57478" lon="5.27242">
        <ele>641.34</ele>
        <time>2025-03-02T14:39:07Z</time>
      </trkpt>
      <trkpt lat="44.57462" lon="5.27252">
        <ele>640.86</ele>
        <time>2025-03-02T14:39:22Z</time>
      </trkpt>
      <trkpt lat="44.57452" lon="5.27261">
        <ele>640.86</ele>
        <time>2025-03-02T14:39:31Z</time>
      </trkpt>
      <trkpt lat="44.57433" lon="5.27273">
        <ele>640.38</ele>
        <time>2025-03-02T14:39:48Z</time>
      </trkpt>
      <trkpt lat="44.57415" lon="5.2729">
        <ele>639.89</ele>
        <time>2025-03-02T14:40:05Z</time>
      </trkpt>
      <trkpt lat="44.57397" lon="5.27287">
        <ele>638.93</ele>
        <time>2025-03-02T14:40:20Z</time>
      </trkpt>
      <trkpt lat="44.57378" lon="5.27281">
        <ele>637.01</ele>
        <time>2025-03-02T14:40:37Z</time>
      </trkpt>
      <trkpt lat="44.57358" lon="5.27272">
        <ele>633.65</ele>
        <time>2025-03-02T14:40:53Z</time>
      </trkpt>
      <trkpt lat="44.57338" lon="5.2726">
        <ele>630.76</ele>
        <time>2025-03-02T14:41:09Z</time>
      </trkpt>
      <trkpt lat="44.57316" lon="5.27246">
        <ele>627.4</ele>
        <time>2025-03-02T14:41:27Z</time>
      </trkpt>
      <trkpt lat="44.57312" lon="5.27247">
        <ele>626.92</ele>
        <time>2025-03-02T14:41:30Z</time>
      </trkpt>
      <trkpt lat="44.57298" lon="5.27265">
        <ele>624.99</ele>
        <time>2025-03-02T14:41:45Z</time>
      </trkpt>
      <trkpt lat="44.57278" lon="5.27278">
        <ele>623.07</ele>
        <time>2025-03-02T14:42:01Z</time>
      </trkpt>
      <trkpt lat="44.57264" lon="5.27297">
        <ele>622.11</ele>
        <time>2025-03-02T14:42:15Z</time>
      </trkpt>
      <trkpt lat="44.5724" lon="5.27307">
        <ele>620.67</ele>
        <time>2025-03-02T14:42:33Z</time>
      </trkpt>
      <trkpt lat="44.57222" lon="5.27314">
        <ele>619.71</ele>
        <time>2025-03-02T14:42:48Z</time>
      </trkpt>
      <trkpt lat="44.57217" lon="5.27316">
        <ele>619.23</ele>
        <time>2025-03-02T14:42:52Z</time>
      </trkpt>
      <trkpt lat="44.57189" lon="5.27329">
        <ele>617.78</ele>
        <time>2025-03-02T14:43:11Z</time>
      </trkpt>
      <trkpt lat="44.57177" lon="5.27343">
        <ele>617.78</ele>
        <time>2025-03-02T14:43:23Z</time>
      </trkpt>
      <trkpt lat="44.57174" lon="5.27345">
        <ele>617.78</ele>
        <time>2025-03-02T14:43:25Z</time>
      </trkpt>
      <trkpt lat="44.57155" lon="5.27343">
        <ele>616.82</ele>
        <time>2025-03-02T14:43:41Z</time>
      </trkpt>
      <trkpt lat="44.57141" lon="5.27348">
        <ele>613.94</ele>
        <time>2025-03-02T14:43:52Z</time>
      </trkpt>
      <trkpt lat="44.57152" lon="5.27362">
        <ele>612.5</ele>
        <time>2025-03-02T14:44:07Z</time>
      </trkpt>
      <trkpt lat="44.57153" lon="5.27365">
        <ele>612.02</ele>
        <time>2025-03-02T14:44:09Z</time>
      </trkpt>
      <trkpt lat="44.57142" lon="5.27382">
        <ele>608.65</ele>
        <time>2025-03-02T14:44:23Z</time>
      </trkpt>
      <trkpt lat="44.57126" lon="5.2739">
        <ele>605.77</ele>
        <time>2025-03-02T14:44:35Z</time>
      </trkpt>
      <trkpt lat="44.57098" lon="5.27396">
        <ele>602.4</ele>
        <time>2025-03-02T14:44:54Z</time>
      </trkpt>
      <trkpt lat="44.57078" lon="5.27384">
        <ele>599.52</ele>
        <time>2025-03-02T14:45:12Z</time>
      </trkpt>
      <trkpt lat="44.57065" lon="5.27371">
        <ele>596.15</ele>
        <time>2025-03-02T14:45:25Z</time>
      </trkpt>
      <trkpt lat="44.57051" lon="5.27357">
        <ele>593.27</ele>
        <time>2025-03-02T14:45:37Z</time>
      </trkpt>
      <trkpt lat="44.57035" lon="5.2734">
        <ele>589.91</ele>
        <time>2025-03-02T14:45:51Z</time>
      </trkpt>
      <trkpt lat="44.57023" lon="5.2731">
        <ele>587.98</ele>
        <time>2025-03-02T14:46:09Z</time>
      </trkpt>
      <trkpt lat="44.57007" lon="5.27275">
        <ele>586.54</ele>
        <time>2025-03-02T14:46:29Z</time>
      </trkpt>
      <trkpt lat="44.5699" lon="5.27245">
        <ele>585.58</ele>
        <time>2025-03-02T14:46:48Z</time>
      </trkpt>
      <trkpt lat="44.56977" lon="5.27219">
        <ele>585.1</ele>
        <time>2025-03-02T14:47:05Z</time>
      </trkpt>
      <trkpt lat="44.56961" lon="5.27193">
        <ele>581.73</ele>
        <time>2025-03-02T14:47:23Z</time>
      </trkpt>
      <trkpt lat="44.56956" lon="5.27193">
        <ele>581.25</ele>
        <time>2025-03-02T14:47:27Z</time>
      </trkpt>
      <trkpt lat="44.56954" lon="5.27195">
        <ele>581.25</ele>
        <time>2025-03-02T14:47:29Z</time>
      </trkpt>
      <trkpt lat="44.56951" lon="5.27219">
        <ele>578.37</ele>
        <time>2025-03-02T14:47:44Z</time>
      </trkpt>
      <trkpt lat="44.56959" lon="5.27247">
        <ele>575.49</ele>
        <time>2025-03-02T14:48:03Z</time>
      </trkpt>
      <trkpt lat="44.56963" lon="5.27268">
        <ele>572.12</ele>
        <time>2025-03-02T14:48:15Z</time>
      </trkpt>
      <trkpt lat="44.5696" lon="5.27298">
        <ele>568.76</ele>
        <time>2025-03-02T14:48:30Z</time>
      </trkpt>
      <trkpt lat="44.5696" lon="5.2733">
        <ele>565.39</ele>
        <time>2025-03-02T14:48:46Z</time>
      </trkpt>
      <trkpt lat="44.5696" lon="5.27345">
        <ele>564.43</ele>
        <time>2025-03-02T14:48:54Z</time>
      </trkpt>
      <trkpt lat="44.5696" lon="5.27348">
        <ele>564.43</ele>
        <time>2025-03-02T14:48:56Z</time>
      </trkpt>
      <trkpt lat="44.56961" lon="5.27355">
        <ele>563.47</ele>
        <time>2025-03-02T14:49:00Z</time>
      </trkpt>
      <trkpt lat="44.56971" lon="5.27383">
        <ele>562.51</ele>
        <time>2025-03-02T14:49:17Z</time>
      </trkpt>
      <trkpt lat="44.56983" lon="5.27413">
        <ele>562.51</ele>
        <time>2025-03-02T14:49:34Z</time>
      </trkpt>
      <trkpt lat="44.56993" lon="5.27445">
        <ele>561.55</ele>
        <time>2025-03-02T14:49:53Z</time>
      </trkpt>
      <trkpt lat="44.57001" lon="5.27476">
        <ele>561.07</ele>
        <time>2025-03-02T14:50:11Z</time>
      </trkpt>
      <trkpt lat="44.57008" lon="5.27493">
        <ele>561.07</ele>
        <time>2025-03-02T14:50:23Z</time>
      </trkpt>
      <trkpt lat="44.57026" lon="5.27498">
        <ele>560.59</ele>
        <time>2025-03-02T14:50:39Z</time>
      </trkpt>
      <trkpt lat="44.57036" lon="5.27515">
        <ele>560.59</ele>
        <time>2025-03-02T14:50:53Z</time>
      </trkpt>
      <trkpt lat="44.57035" lon="5.27543">
        <ele>560.11</ele>
        <time>2025-03-02T14:51:10Z</time>
      </trkpt>
      <trkpt lat="44.57035" lon="5.27545">
        <ele>560.11</ele>
        <time>2025-03-02T14:51:12Z</time>
      </trkpt>
      <trkpt lat="44.57034" lon="5.2757">
        <ele>559.62</ele>
        <time>2025-03-02T14:51:27Z</time>
      </trkpt>
      <trkpt lat="44.57037" lon="5.27589">
        <ele>559.14</ele>
        <time>2025-03-02T14:51:43Z</time>
      </trkpt>
    </trkseg>
  </trk>
</gpx>